<?xml version="1.0" encoding="UTF-8" standalone="no" ?>
<gpx xmlns="http://www.topografix.com/GPX/1/1" xmlns:xsi="http://www.w3.org/2001/XMLSchema-instance" xsi:schemaLocation="http://www.topografix.com/GPX/1/1 http://www.topografix.com/GPX/1/1/gpx.xsd" version="1.1" creator="VisuGPX - https://www.visugpx.com">
  <metadata>
    <name>Notre randonnée autour de Cherveux le 27 janvier 2011</name>
    <desc><![CDATA[randonnée  pédestre au nord de Cherveux avec le tour du plan d\'eau de Cherveux St Christophe.]]></desc>
  </metadata>
  <trk>
    <name><![CDATA[ACTIVE LOG 004]]></name>
    <trkseg>
      <trkpt lat="46.41566" lon="-0.3598">
        <ele>86.6560059</ele>
        <time>2011-01-27T14:18:06Z</time>
      </trkpt>
      <trkpt lat="46.41562" lon="-0.3597">
        <ele>87.6171875</ele>
        <time>2011-01-27T14:18:12Z</time>
      </trkpt>
      <trkpt lat="46.41559" lon="-0.35966">
        <ele>88.0980225</ele>
        <time>2011-01-27T14:18:15Z</time>
      </trkpt>
      <trkpt lat="46.41558" lon="-0.35964">
        <ele>88.5787354</ele>
        <time>2011-01-27T14:18:17Z</time>
      </trkpt>
      <trkpt lat="46.41556" lon="-0.35957">
        <ele>87.1365967</ele>
        <time>2011-01-27T14:18:22Z</time>
      </trkpt>
      <trkpt lat="46.41552" lon="-0.35949">
        <ele>86.6560059</ele>
        <time>2011-01-27T14:18:29Z</time>
      </trkpt>
      <trkpt lat="46.41555" lon="-0.35945">
        <ele>86.175293</ele>
        <time>2011-01-27T14:18:33Z</time>
      </trkpt>
      <trkpt lat="46.41561" lon="-0.35942">
        <ele>84.7333984</ele>
        <time>2011-01-27T14:18:38Z</time>
      </trkpt>
      <trkpt lat="46.41568" lon="-0.35935">
        <ele>84.2526855</ele>
        <time>2011-01-27T14:18:45Z</time>
      </trkpt>
      <trkpt lat="46.41572" lon="-0.35929">
        <ele>83.7719727</ele>
        <time>2011-01-27T14:18:49Z</time>
      </trkpt>
      <trkpt lat="46.41577" lon="-0.35927">
        <ele>83.7719727</ele>
        <time>2011-01-27T14:18:53Z</time>
      </trkpt>
      <trkpt lat="46.41581" lon="-0.35921">
        <ele>84.2526855</ele>
        <time>2011-01-27T14:18:58Z</time>
      </trkpt>
      <trkpt lat="46.41598" lon="-0.35902">
        <ele>84.2526855</ele>
        <time>2011-01-27T14:19:16Z</time>
      </trkpt>
      <trkpt lat="46.41608" lon="-0.35891">
        <ele>83.2913818</ele>
        <time>2011-01-27T14:19:27Z</time>
      </trkpt>
      <trkpt lat="46.41614" lon="-0.35889">
        <ele>83.2913818</ele>
        <time>2011-01-27T14:19:31Z</time>
      </trkpt>
      <trkpt lat="46.41619" lon="-0.35889">
        <ele>82.810791</ele>
        <time>2011-01-27T14:19:34Z</time>
      </trkpt>
      <trkpt lat="46.41624" lon="-0.35885">
        <ele>82.3300781</ele>
        <time>2011-01-27T14:19:38Z</time>
      </trkpt>
      <trkpt lat="46.41637" lon="-0.35865">
        <ele>81.8493652</ele>
        <time>2011-01-27T14:19:51Z</time>
      </trkpt>
      <trkpt lat="46.41642" lon="-0.3586">
        <ele>82.3300781</ele>
        <time>2011-01-27T14:19:56Z</time>
      </trkpt>
      <trkpt lat="46.41641" lon="-0.35854">
        <ele>81.3687744</ele>
        <time>2011-01-27T14:19:59Z</time>
      </trkpt>
      <trkpt lat="46.41633" lon="-0.35832">
        <ele>77.5234375</ele>
        <time>2011-01-27T14:20:12Z</time>
      </trkpt>
      <trkpt lat="46.4163" lon="-0.35823">
        <ele>76.5621338</ele>
        <time>2011-01-27T14:20:18Z</time>
      </trkpt>
      <trkpt lat="46.41627" lon="-0.35812">
        <ele>75.6008301</ele>
        <time>2011-01-27T14:20:25Z</time>
      </trkpt>
      <trkpt lat="46.41617" lon="-0.35789">
        <ele>75.1202393</ele>
        <time>2011-01-27T14:20:41Z</time>
      </trkpt>
      <trkpt lat="46.41615" lon="-0.35784">
        <ele>75.1202393</ele>
        <time>2011-01-27T14:20:44Z</time>
      </trkpt>
      <trkpt lat="46.41613" lon="-0.35777">
        <ele>75.1202393</ele>
        <time>2011-01-27T14:20:47Z</time>
      </trkpt>
      <trkpt lat="46.41608" lon="-0.35771">
        <ele>74.1588135</ele>
        <time>2011-01-27T14:20:51Z</time>
      </trkpt>
      <trkpt lat="46.41608" lon="-0.35767">
        <ele>73.6782227</ele>
        <time>2011-01-27T14:20:54Z</time>
      </trkpt>
      <trkpt lat="46.41605" lon="-0.35749">
        <ele>70.3134766</ele>
        <time>2011-01-27T14:21:07Z</time>
      </trkpt>
      <trkpt lat="46.41601" lon="-0.35729">
        <ele>68.871582</ele>
        <time>2011-01-27T14:21:19Z</time>
      </trkpt>
      <trkpt lat="46.41601" lon="-0.35726">
        <ele>68.3908691</ele>
        <time>2011-01-27T14:21:21Z</time>
      </trkpt>
      <trkpt lat="46.41612" lon="-0.35715">
        <ele>65.9876709</ele>
        <time>2011-01-27T14:21:32Z</time>
      </trkpt>
      <trkpt lat="46.41613" lon="-0.35714">
        <ele>65.5070801</ele>
        <time>2011-01-27T14:21:33Z</time>
      </trkpt>
      <trkpt lat="46.41624" lon="-0.35702">
        <ele>61.1810303</ele>
        <time>2011-01-27T14:21:44Z</time>
      </trkpt>
      <trkpt lat="46.41638" lon="-0.35696">
        <ele>58.77771</ele>
        <time>2011-01-27T14:21:54Z</time>
      </trkpt>
      <trkpt lat="46.41647" lon="-0.3569">
        <ele>55.8937988</ele>
        <time>2011-01-27T14:22:03Z</time>
      </trkpt>
      <trkpt lat="46.41655" lon="-0.35686">
        <ele>53.0097656</ele>
        <time>2011-01-27T14:22:12Z</time>
      </trkpt>
      <trkpt lat="46.41657" lon="-0.35686">
        <ele>52.5291748</ele>
        <time>2011-01-27T14:22:14Z</time>
      </trkpt>
      <trkpt lat="46.41671" lon="-0.3568">
        <ele>53.0097656</ele>
        <time>2011-01-27T14:22:24Z</time>
      </trkpt>
      <trkpt lat="46.41689" lon="-0.35678">
        <ele>55.4130859</ele>
        <time>2011-01-27T14:22:38Z</time>
      </trkpt>
      <trkpt lat="46.41698" lon="-0.35677">
        <ele>55.4130859</ele>
        <time>2011-01-27T14:22:47Z</time>
      </trkpt>
      <trkpt lat="46.41713" lon="-0.35671">
        <ele>55.4130859</ele>
        <time>2011-01-27T14:22:58Z</time>
      </trkpt>
      <trkpt lat="46.41724" lon="-0.35664">
        <ele>54.932373</ele>
        <time>2011-01-27T14:23:08Z</time>
      </trkpt>
      <trkpt lat="46.4174" lon="-0.35649">
        <ele>52.048584</ele>
        <time>2011-01-27T14:23:22Z</time>
      </trkpt>
      <trkpt lat="46.41757" lon="-0.3563">
        <ele>50.6065674</ele>
        <time>2011-01-27T14:23:37Z</time>
      </trkpt>
      <trkpt lat="46.41767" lon="-0.35615">
        <ele>50.1259766</ele>
        <time>2011-01-27T14:23:49Z</time>
      </trkpt>
      <trkpt lat="46.41775" lon="-0.35609">
        <ele>49.1645508</ele>
        <time>2011-01-27T14:23:55Z</time>
      </trkpt>
      <trkpt lat="46.41779" lon="-0.35602">
        <ele>49.1645508</ele>
        <time>2011-01-27T14:24:00Z</time>
      </trkpt>
      <trkpt lat="46.41788" lon="-0.35588">
        <ele>48.68396</ele>
        <time>2011-01-27T14:24:11Z</time>
      </trkpt>
      <trkpt lat="46.41789" lon="-0.35586">
        <ele>48.68396</ele>
        <time>2011-01-27T14:24:13Z</time>
      </trkpt>
      <trkpt lat="46.41796" lon="-0.35591">
        <ele>48.68396</ele>
        <time>2011-01-27T14:24:21Z</time>
      </trkpt>
      <trkpt lat="46.41812" lon="-0.35609">
        <ele>46.7612305</ele>
        <time>2011-01-27T14:24:36Z</time>
      </trkpt>
      <trkpt lat="46.41814" lon="-0.35611">
        <ele>47.2418213</ele>
        <time>2011-01-27T14:24:38Z</time>
      </trkpt>
      <trkpt lat="46.41819" lon="-0.35625">
        <ele>48.68396</ele>
        <time>2011-01-27T14:24:47Z</time>
      </trkpt>
      <trkpt lat="46.41832" lon="-0.35648">
        <ele>53.4904785</ele>
        <time>2011-01-27T14:25:03Z</time>
      </trkpt>
      <trkpt lat="46.41835" lon="-0.35648">
        <ele>64.0650635</ele>
        <time>2011-01-27T14:25:05Z</time>
      </trkpt>
      <trkpt lat="46.41848" lon="-0.35676">
        <ele>77.5234375</ele>
        <time>2011-01-27T14:25:21Z</time>
      </trkpt>
      <trkpt lat="46.41862" lon="-0.35692">
        <ele>78.9654541</ele>
        <time>2011-01-27T14:25:34Z</time>
      </trkpt>
      <trkpt lat="46.41876" lon="-0.35706">
        <ele>80.4074707</ele>
        <time>2011-01-27T14:25:48Z</time>
      </trkpt>
      <trkpt lat="46.41898" lon="-0.3572">
        <ele>82.3300781</ele>
        <time>2011-01-27T14:26:06Z</time>
      </trkpt>
      <trkpt lat="46.41899" lon="-0.35721">
        <ele>82.810791</ele>
        <time>2011-01-27T14:26:07Z</time>
      </trkpt>
      <trkpt lat="46.41915" lon="-0.35736">
        <ele>85.2139893</ele>
        <time>2011-01-27T14:26:22Z</time>
      </trkpt>
      <trkpt lat="46.41929" lon="-0.35749">
        <ele>85.2139893</ele>
        <time>2011-01-27T14:26:35Z</time>
      </trkpt>
      <trkpt lat="46.41938" lon="-0.35758">
        <ele>85.2139893</ele>
        <time>2011-01-27T14:26:44Z</time>
      </trkpt>
      <trkpt lat="46.4195" lon="-0.35775">
        <ele>85.2139893</ele>
        <time>2011-01-27T14:26:59Z</time>
      </trkpt>
      <trkpt lat="46.41963" lon="-0.3579">
        <ele>85.2139893</ele>
        <time>2011-01-27T14:27:13Z</time>
      </trkpt>
      <trkpt lat="46.41976" lon="-0.35799">
        <ele>85.2139893</ele>
        <time>2011-01-27T14:27:24Z</time>
      </trkpt>
      <trkpt lat="46.41992" lon="-0.35818">
        <ele>86.175293</ele>
        <time>2011-01-27T14:27:37Z</time>
      </trkpt>
      <trkpt lat="46.41993" lon="-0.35819">
        <ele>86.175293</ele>
        <time>2011-01-27T14:27:38Z</time>
      </trkpt>
      <trkpt lat="46.42007" lon="-0.35832">
        <ele>83.7719727</ele>
        <time>2011-01-27T14:27:51Z</time>
      </trkpt>
      <trkpt lat="46.4202" lon="-0.35849">
        <ele>84.7333984</ele>
        <time>2011-01-27T14:28:06Z</time>
      </trkpt>
      <trkpt lat="46.42022" lon="-0.35851">
        <ele>85.2139893</ele>
        <time>2011-01-27T14:28:08Z</time>
      </trkpt>
      <trkpt lat="46.42027" lon="-0.35858">
        <ele>85.2139893</ele>
        <time>2011-01-27T14:28:13Z</time>
      </trkpt>
      <trkpt lat="46.42041" lon="-0.35874">
        <ele>87.1365967</ele>
        <time>2011-01-27T14:28:27Z</time>
      </trkpt>
      <trkpt lat="46.42042" lon="-0.35875">
        <ele>87.1365967</ele>
        <time>2011-01-27T14:28:28Z</time>
      </trkpt>
      <trkpt lat="46.42045" lon="-0.35876">
        <ele>87.1365967</ele>
        <time>2011-01-27T14:28:31Z</time>
      </trkpt>
      <trkpt lat="46.42054" lon="-0.35885">
        <ele>86.6560059</ele>
        <time>2011-01-27T14:28:41Z</time>
      </trkpt>
      <trkpt lat="46.42066" lon="-0.35899">
        <ele>86.6560059</ele>
        <time>2011-01-27T14:28:54Z</time>
      </trkpt>
      <trkpt lat="46.42079" lon="-0.35915">
        <ele>87.6171875</ele>
        <time>2011-01-27T14:29:10Z</time>
      </trkpt>
      <trkpt lat="46.4209" lon="-0.35928">
        <ele>88.0980225</ele>
        <time>2011-01-27T14:29:23Z</time>
      </trkpt>
      <trkpt lat="46.42103" lon="-0.35944">
        <ele>90.5013428</ele>
        <time>2011-01-27T14:29:37Z</time>
      </trkpt>
      <trkpt lat="46.42111" lon="-0.35952">
        <ele>90.5013428</ele>
        <time>2011-01-27T14:29:46Z</time>
      </trkpt>
      <trkpt lat="46.42123" lon="-0.35964">
        <ele>91.4625244</ele>
        <time>2011-01-27T14:29:59Z</time>
      </trkpt>
      <trkpt lat="46.42124" lon="-0.35965">
        <ele>91.4625244</ele>
        <time>2011-01-27T14:30:00Z</time>
      </trkpt>
      <trkpt lat="46.42138" lon="-0.35977">
        <ele>90.0206299</ele>
        <time>2011-01-27T14:30:14Z</time>
      </trkpt>
      <trkpt lat="46.42152" lon="-0.35992">
        <ele>90.0206299</ele>
        <time>2011-01-27T14:30:29Z</time>
      </trkpt>
      <trkpt lat="46.42158" lon="-0.36002">
        <ele>89.539917</ele>
        <time>2011-01-27T14:30:42Z</time>
      </trkpt>
      <trkpt lat="46.42172" lon="-0.36014">
        <ele>89.0593262</ele>
        <time>2011-01-27T14:30:56Z</time>
      </trkpt>
      <trkpt lat="46.42177" lon="-0.36028">
        <ele>91.9432373</ele>
        <time>2011-01-27T14:31:03Z</time>
      </trkpt>
      <trkpt lat="46.42184" lon="-0.36038">
        <ele>94.8271484</ele>
        <time>2011-01-27T14:31:10Z</time>
      </trkpt>
      <trkpt lat="46.42198" lon="-0.36057">
        <ele>96.2692871</ele>
        <time>2011-01-27T14:31:25Z</time>
      </trkpt>
      <trkpt lat="46.42211" lon="-0.3608">
        <ele>97.7111816</ele>
        <time>2011-01-27T14:31:39Z</time>
      </trkpt>
      <trkpt lat="46.42225" lon="-0.36111">
        <ele>99.1530762</ele>
        <time>2011-01-27T14:31:57Z</time>
      </trkpt>
      <trkpt lat="46.42236" lon="-0.36131">
        <ele>99.1530762</ele>
        <time>2011-01-27T14:32:10Z</time>
      </trkpt>
      <trkpt lat="46.42252" lon="-0.36156">
        <ele>97.2304688</ele>
        <time>2011-01-27T14:32:27Z</time>
      </trkpt>
      <trkpt lat="46.42266" lon="-0.36173">
        <ele>97.7111816</ele>
        <time>2011-01-27T14:32:41Z</time>
      </trkpt>
      <trkpt lat="46.42281" lon="-0.3619">
        <ele>97.7111816</ele>
        <time>2011-01-27T14:32:56Z</time>
      </trkpt>
      <trkpt lat="46.42302" lon="-0.36205">
        <ele>96.7498779</ele>
        <time>2011-01-27T14:33:14Z</time>
      </trkpt>
      <trkpt lat="46.42325" lon="-0.3622">
        <ele>94.3465576</ele>
        <time>2011-01-27T14:33:33Z</time>
      </trkpt>
      <trkpt lat="46.42334" lon="-0.36226">
        <ele>93.3851318</ele>
        <time>2011-01-27T14:33:41Z</time>
      </trkpt>
      <trkpt lat="46.42346" lon="-0.36236">
        <ele>93.3851318</ele>
        <time>2011-01-27T14:33:53Z</time>
      </trkpt>
      <trkpt lat="46.4236" lon="-0.36248">
        <ele>93.3851318</ele>
        <time>2011-01-27T14:34:07Z</time>
      </trkpt>
      <trkpt lat="46.42361" lon="-0.36249">
        <ele>93.3851318</ele>
        <time>2011-01-27T14:34:08Z</time>
      </trkpt>
      <trkpt lat="46.4237" lon="-0.3626">
        <ele>91.9432373</ele>
        <time>2011-01-27T14:34:20Z</time>
      </trkpt>
      <trkpt lat="46.42386" lon="-0.3628">
        <ele>90.9819336</ele>
        <time>2011-01-27T14:34:36Z</time>
      </trkpt>
      <trkpt lat="46.42401" lon="-0.36302">
        <ele>91.4625244</ele>
        <time>2011-01-27T14:34:52Z</time>
      </trkpt>
      <trkpt lat="46.42402" lon="-0.36305">
        <ele>91.9432373</ele>
        <time>2011-01-27T14:34:54Z</time>
      </trkpt>
      <trkpt lat="46.42405" lon="-0.3631">
        <ele>91.9432373</ele>
        <time>2011-01-27T14:34:58Z</time>
      </trkpt>
      <trkpt lat="46.42417" lon="-0.36328">
        <ele>93.8658447</ele>
        <time>2011-01-27T14:35:12Z</time>
      </trkpt>
      <trkpt lat="46.42425" lon="-0.36338">
        <ele>94.3465576</ele>
        <time>2011-01-27T14:35:21Z</time>
      </trkpt>
      <trkpt lat="46.42433" lon="-0.36351">
        <ele>95.3077393</ele>
        <time>2011-01-27T14:35:33Z</time>
      </trkpt>
      <trkpt lat="46.42452" lon="-0.36376">
        <ele>96.7498779</ele>
        <time>2011-01-27T14:35:53Z</time>
      </trkpt>
      <trkpt lat="46.42466" lon="-0.36391">
        <ele>96.2692871</ele>
        <time>2011-01-27T14:36:06Z</time>
      </trkpt>
      <trkpt lat="46.4248" lon="-0.36408">
        <ele>94.3465576</ele>
        <time>2011-01-27T14:36:21Z</time>
      </trkpt>
      <trkpt lat="46.42499" lon="-0.36422">
        <ele>93.8658447</ele>
        <time>2011-01-27T14:36:37Z</time>
      </trkpt>
      <trkpt lat="46.42503" lon="-0.36422">
        <ele>94.3465576</ele>
        <time>2011-01-27T14:36:40Z</time>
      </trkpt>
      <trkpt lat="46.42514" lon="-0.36409">
        <ele>94.3465576</ele>
        <time>2011-01-27T14:36:51Z</time>
      </trkpt>
      <trkpt lat="46.42533" lon="-0.36392">
        <ele>93.8658447</ele>
        <time>2011-01-27T14:37:08Z</time>
      </trkpt>
      <trkpt lat="46.42537" lon="-0.36388">
        <ele>93.8658447</ele>
        <time>2011-01-27T14:37:11Z</time>
      </trkpt>
      <trkpt lat="46.42556" lon="-0.36372">
        <ele>94.8271484</ele>
        <time>2011-01-27T14:37:27Z</time>
      </trkpt>
      <trkpt lat="46.42558" lon="-0.36373">
        <ele>94.8271484</ele>
        <time>2011-01-27T14:37:29Z</time>
      </trkpt>
      <trkpt lat="46.42572" lon="-0.36396">
        <ele>93.8658447</ele>
        <time>2011-01-27T14:37:45Z</time>
      </trkpt>
      <trkpt lat="46.4258" lon="-0.36416">
        <ele>93.3851318</ele>
        <time>2011-01-27T14:37:58Z</time>
      </trkpt>
      <trkpt lat="46.42583" lon="-0.36431">
        <ele>92.904541</ele>
        <time>2011-01-27T14:38:07Z</time>
      </trkpt>
      <trkpt lat="46.42584" lon="-0.36438">
        <ele>91.9432373</ele>
        <time>2011-01-27T14:38:11Z</time>
      </trkpt>
      <trkpt lat="46.42591" lon="-0.3646">
        <ele>90.5013428</ele>
        <time>2011-01-27T14:38:26Z</time>
      </trkpt>
      <trkpt lat="46.42592" lon="-0.36461">
        <ele>90.5013428</ele>
        <time>2011-01-27T14:38:27Z</time>
      </trkpt>
      <trkpt lat="46.426" lon="-0.36483">
        <ele>90.5013428</ele>
        <time>2011-01-27T14:38:41Z</time>
      </trkpt>
      <trkpt lat="46.42603" lon="-0.36489">
        <ele>90.9819336</ele>
        <time>2011-01-27T14:38:45Z</time>
      </trkpt>
      <trkpt lat="46.42604" lon="-0.36495">
        <ele>91.4625244</ele>
        <time>2011-01-27T14:38:48Z</time>
      </trkpt>
      <trkpt lat="46.42607" lon="-0.36502">
        <ele>92.4239502</ele>
        <time>2011-01-27T14:38:52Z</time>
      </trkpt>
      <trkpt lat="46.42609" lon="-0.36505">
        <ele>92.4239502</ele>
        <time>2011-01-27T14:38:54Z</time>
      </trkpt>
      <trkpt lat="46.42611" lon="-0.36515">
        <ele>93.3851318</ele>
        <time>2011-01-27T14:39:00Z</time>
      </trkpt>
      <trkpt lat="46.42616" lon="-0.36531">
        <ele>93.8658447</ele>
        <time>2011-01-27T14:39:09Z</time>
      </trkpt>
      <trkpt lat="46.42623" lon="-0.36547">
        <ele>90.0206299</ele>
        <time>2011-01-27T14:39:21Z</time>
      </trkpt>
      <trkpt lat="46.42623" lon="-0.36548">
        <ele>89.539917</ele>
        <time>2011-01-27T14:39:22Z</time>
      </trkpt>
      <trkpt lat="46.42625" lon="-0.36551">
        <ele>89.0593262</ele>
        <time>2011-01-27T14:39:24Z</time>
      </trkpt>
      <trkpt lat="46.42631" lon="-0.36564">
        <ele>86.175293</ele>
        <time>2011-01-27T14:39:34Z</time>
      </trkpt>
      <trkpt lat="46.42636" lon="-0.36577">
        <ele>82.3300781</ele>
        <time>2011-01-27T14:39:45Z</time>
      </trkpt>
      <trkpt lat="46.42639" lon="-0.36584">
        <ele>80.8881836</ele>
        <time>2011-01-27T14:39:50Z</time>
      </trkpt>
      <trkpt lat="46.42645" lon="-0.36612">
        <ele>84.7333984</ele>
        <time>2011-01-27T14:40:03Z</time>
      </trkpt>
      <trkpt lat="46.42653" lon="-0.36639">
        <ele>84.2526855</ele>
        <time>2011-01-27T14:40:18Z</time>
      </trkpt>
      <trkpt lat="46.42662" lon="-0.36677">
        <ele>84.2526855</ele>
        <time>2011-01-27T14:40:38Z</time>
      </trkpt>
      <trkpt lat="46.42672" lon="-0.36709">
        <ele>83.7719727</ele>
        <time>2011-01-27T14:40:56Z</time>
      </trkpt>
      <trkpt lat="46.42685" lon="-0.36743">
        <ele>84.7333984</ele>
        <time>2011-01-27T14:41:16Z</time>
      </trkpt>
      <trkpt lat="46.42699" lon="-0.36774">
        <ele>85.2139893</ele>
        <time>2011-01-27T14:41:34Z</time>
      </trkpt>
      <trkpt lat="46.4271" lon="-0.36801">
        <ele>87.6171875</ele>
        <time>2011-01-27T14:41:50Z</time>
      </trkpt>
      <trkpt lat="46.42727" lon="-0.36835">
        <ele>88.5787354</ele>
        <time>2011-01-27T14:42:11Z</time>
      </trkpt>
      <trkpt lat="46.42743" lon="-0.36864">
        <ele>89.0593262</ele>
        <time>2011-01-27T14:42:30Z</time>
      </trkpt>
      <trkpt lat="46.42757" lon="-0.36887">
        <ele>90.0206299</ele>
        <time>2011-01-27T14:42:46Z</time>
      </trkpt>
      <trkpt lat="46.42774" lon="-0.36913">
        <ele>89.539917</ele>
        <time>2011-01-27T14:43:05Z</time>
      </trkpt>
      <trkpt lat="46.42787" lon="-0.36936">
        <ele>90.5013428</ele>
        <time>2011-01-27T14:43:20Z</time>
      </trkpt>
      <trkpt lat="46.42801" lon="-0.36962">
        <ele>91.4625244</ele>
        <time>2011-01-27T14:43:36Z</time>
      </trkpt>
      <trkpt lat="46.42804" lon="-0.36969">
        <ele>92.4239502</ele>
        <time>2011-01-27T14:43:41Z</time>
      </trkpt>
      <trkpt lat="46.42817" lon="-0.37">
        <ele>94.3465576</ele>
        <time>2011-01-27T14:43:59Z</time>
      </trkpt>
      <trkpt lat="46.42828" lon="-0.37031">
        <ele>91.9432373</ele>
        <time>2011-01-27T14:44:17Z</time>
      </trkpt>
      <trkpt lat="46.42833" lon="-0.37044">
        <ele>93.3851318</ele>
        <time>2011-01-27T14:44:24Z</time>
      </trkpt>
      <trkpt lat="46.42835" lon="-0.37054">
        <ele>94.8271484</ele>
        <time>2011-01-27T14:44:29Z</time>
      </trkpt>
      <trkpt lat="46.42843" lon="-0.37083">
        <ele>95.7884521</ele>
        <time>2011-01-27T14:44:44Z</time>
      </trkpt>
      <trkpt lat="46.42853" lon="-0.37115">
        <ele>94.3465576</ele>
        <time>2011-01-27T14:45:02Z</time>
      </trkpt>
      <trkpt lat="46.42859" lon="-0.37117">
        <ele>93.8658447</ele>
        <time>2011-01-27T14:45:07Z</time>
      </trkpt>
      <trkpt lat="46.42862" lon="-0.37118">
        <ele>93.8658447</ele>
        <time>2011-01-27T14:45:09Z</time>
      </trkpt>
      <trkpt lat="46.42876" lon="-0.37108">
        <ele>94.3465576</ele>
        <time>2011-01-27T14:45:25Z</time>
      </trkpt>
      <trkpt lat="46.42883" lon="-0.37102">
        <ele>93.8658447</ele>
        <time>2011-01-27T14:45:41Z</time>
      </trkpt>
      <trkpt lat="46.42887" lon="-0.371">
        <ele>93.8658447</ele>
        <time>2011-01-27T14:46:49Z</time>
      </trkpt>
      <trkpt lat="46.42898" lon="-0.3709">
        <ele>95.7884521</ele>
        <time>2011-01-27T14:47:01Z</time>
      </trkpt>
      <trkpt lat="46.42916" lon="-0.37078">
        <ele>95.7884521</ele>
        <time>2011-01-27T14:47:17Z</time>
      </trkpt>
      <trkpt lat="46.42934" lon="-0.37062">
        <ele>94.8271484</ele>
        <time>2011-01-27T14:47:32Z</time>
      </trkpt>
      <trkpt lat="46.42952" lon="-0.37047">
        <ele>96.7498779</ele>
        <time>2011-01-27T14:47:48Z</time>
      </trkpt>
      <trkpt lat="46.42958" lon="-0.37048">
        <ele>97.7111816</ele>
        <time>2011-01-27T14:47:52Z</time>
      </trkpt>
      <trkpt lat="46.42968" lon="-0.37068">
        <ele>99.1530762</ele>
        <time>2011-01-27T14:48:05Z</time>
      </trkpt>
      <trkpt lat="46.42972" lon="-0.37076">
        <ele>99.1530762</ele>
        <time>2011-01-27T14:48:10Z</time>
      </trkpt>
      <trkpt lat="46.42974" lon="-0.37082">
        <ele>99.6337891</ele>
        <time>2011-01-27T14:48:14Z</time>
      </trkpt>
      <trkpt lat="46.42978" lon="-0.37084">
        <ele>99.1530762</ele>
        <time>2011-01-27T14:48:18Z</time>
      </trkpt>
      <trkpt lat="46.4299" lon="-0.3707">
        <ele>99.1530762</ele>
        <time>2011-01-27T14:48:30Z</time>
      </trkpt>
      <trkpt lat="46.42998" lon="-0.37067">
        <ele>99.1530762</ele>
        <time>2011-01-27T14:48:36Z</time>
      </trkpt>
      <trkpt lat="46.43001" lon="-0.37063">
        <ele>99.1530762</ele>
        <time>2011-01-27T14:48:39Z</time>
      </trkpt>
      <trkpt lat="46.43015" lon="-0.37051">
        <ele>100.114502</ele>
        <time>2011-01-27T14:48:52Z</time>
      </trkpt>
      <trkpt lat="46.4303" lon="-0.37035">
        <ele>100.5950928</ele>
        <time>2011-01-27T14:49:07Z</time>
      </trkpt>
      <trkpt lat="46.43046" lon="-0.37017">
        <ele>102.5177002</ele>
        <time>2011-01-27T14:49:23Z</time>
      </trkpt>
      <trkpt lat="46.43061" lon="-0.36998">
        <ele>102.0371094</ele>
        <time>2011-01-27T14:49:39Z</time>
      </trkpt>
      <trkpt lat="46.43074" lon="-0.36984">
        <ele>103.4790039</ele>
        <time>2011-01-27T14:49:51Z</time>
      </trkpt>
      <trkpt lat="46.4309" lon="-0.36966">
        <ele>103.9597168</ele>
        <time>2011-01-27T14:50:07Z</time>
      </trkpt>
      <trkpt lat="46.43105" lon="-0.36948">
        <ele>104.9210205</ele>
        <time>2011-01-27T14:50:22Z</time>
      </trkpt>
      <trkpt lat="46.4312" lon="-0.36928">
        <ele>105.8824463</ele>
        <time>2011-01-27T14:50:38Z</time>
      </trkpt>
      <trkpt lat="46.43134" lon="-0.36909">
        <ele>106.8436279</ele>
        <time>2011-01-27T14:50:53Z</time>
      </trkpt>
      <trkpt lat="46.43147" lon="-0.36892">
        <ele>107.3243408</ele>
        <time>2011-01-27T14:51:07Z</time>
      </trkpt>
      <trkpt lat="46.43162" lon="-0.36873">
        <ele>107.3243408</ele>
        <time>2011-01-27T14:51:22Z</time>
      </trkpt>
      <trkpt lat="46.43174" lon="-0.36858">
        <ele>106.8436279</ele>
        <time>2011-01-27T14:51:35Z</time>
      </trkpt>
      <trkpt lat="46.43188" lon="-0.3684">
        <ele>107.8050537</ele>
        <time>2011-01-27T14:51:50Z</time>
      </trkpt>
      <trkpt lat="46.43195" lon="-0.36829">
        <ele>107.8050537</ele>
        <time>2011-01-27T14:51:58Z</time>
      </trkpt>
      <trkpt lat="46.43196" lon="-0.36825">
        <ele>108.2856445</ele>
        <time>2011-01-27T14:52:01Z</time>
      </trkpt>
      <trkpt lat="46.43211" lon="-0.36802">
        <ele>108.2856445</ele>
        <time>2011-01-27T14:52:17Z</time>
      </trkpt>
      <trkpt lat="46.43226" lon="-0.36777">
        <ele>109.2469482</ele>
        <time>2011-01-27T14:52:34Z</time>
      </trkpt>
      <trkpt lat="46.43236" lon="-0.36759">
        <ele>107.3243408</ele>
        <time>2011-01-27T14:52:46Z</time>
      </trkpt>
      <trkpt lat="46.43238" lon="-0.36755">
        <ele>107.8050537</ele>
        <time>2011-01-27T14:52:49Z</time>
      </trkpt>
      <trkpt lat="46.43241" lon="-0.36749">
        <ele>106.8436279</ele>
        <time>2011-01-27T14:52:53Z</time>
      </trkpt>
      <trkpt lat="46.4324" lon="-0.36735">
        <ele>101.5563965</ele>
        <time>2011-01-27T14:53:05Z</time>
      </trkpt>
      <trkpt lat="46.43238" lon="-0.36719">
        <ele>95.3077393</ele>
        <time>2011-01-27T14:53:17Z</time>
      </trkpt>
      <trkpt lat="46.43236" lon="-0.36709">
        <ele>91.9432373</ele>
        <time>2011-01-27T14:53:25Z</time>
      </trkpt>
      <trkpt lat="46.43224" lon="-0.36678">
        <ele>94.3465576</ele>
        <time>2011-01-27T14:53:41Z</time>
      </trkpt>
      <trkpt lat="46.43223" lon="-0.36668">
        <ele>94.8271484</ele>
        <time>2011-01-27T14:53:46Z</time>
      </trkpt>
      <trkpt lat="46.43221" lon="-0.36655">
        <ele>94.8271484</ele>
        <time>2011-01-27T14:53:53Z</time>
      </trkpt>
      <trkpt lat="46.4322" lon="-0.36635">
        <ele>97.2304688</ele>
        <time>2011-01-27T14:54:03Z</time>
      </trkpt>
      <trkpt lat="46.4322" lon="-0.3663">
        <ele>97.2304688</ele>
        <time>2011-01-27T14:54:06Z</time>
      </trkpt>
      <trkpt lat="46.43215" lon="-0.36604">
        <ele>97.2304688</ele>
        <time>2011-01-27T14:54:21Z</time>
      </trkpt>
      <trkpt lat="46.43214" lon="-0.36601">
        <ele>97.2304688</ele>
        <time>2011-01-27T14:54:23Z</time>
      </trkpt>
      <trkpt lat="46.43212" lon="-0.36583">
        <ele>94.3465576</ele>
        <time>2011-01-27T14:54:34Z</time>
      </trkpt>
      <trkpt lat="46.4321" lon="-0.36569">
        <ele>96.2692871</ele>
        <time>2011-01-27T14:54:41Z</time>
      </trkpt>
      <trkpt lat="46.43208" lon="-0.36562">
        <ele>96.2692871</ele>
        <time>2011-01-27T14:54:45Z</time>
      </trkpt>
      <trkpt lat="46.43206" lon="-0.36553">
        <ele>96.2692871</ele>
        <time>2011-01-27T14:54:52Z</time>
      </trkpt>
      <trkpt lat="46.43204" lon="-0.3655">
        <ele>96.2692871</ele>
        <time>2011-01-27T14:54:54Z</time>
      </trkpt>
      <trkpt lat="46.43202" lon="-0.36542">
        <ele>96.7498779</ele>
        <time>2011-01-27T14:54:58Z</time>
      </trkpt>
      <trkpt lat="46.43202" lon="-0.36538">
        <ele>97.2304688</ele>
        <time>2011-01-27T14:55:00Z</time>
      </trkpt>
      <trkpt lat="46.432" lon="-0.36533">
        <ele>98.1918945</ele>
        <time>2011-01-27T14:55:03Z</time>
      </trkpt>
      <trkpt lat="46.43194" lon="-0.36518">
        <ele>97.7111816</ele>
        <time>2011-01-27T14:55:13Z</time>
      </trkpt>
      <trkpt lat="46.43187" lon="-0.36504">
        <ele>98.1918945</ele>
        <time>2011-01-27T14:55:24Z</time>
      </trkpt>
      <trkpt lat="46.43185" lon="-0.36499">
        <ele>97.7111816</ele>
        <time>2011-01-27T14:55:28Z</time>
      </trkpt>
      <trkpt lat="46.43174" lon="-0.36485">
        <ele>97.2304688</ele>
        <time>2011-01-27T14:55:39Z</time>
      </trkpt>
      <trkpt lat="46.43165" lon="-0.36465">
        <ele>98.6724854</ele>
        <time>2011-01-27T14:55:53Z</time>
      </trkpt>
      <trkpt lat="46.43162" lon="-0.3646">
        <ele>99.1530762</ele>
        <time>2011-01-27T14:55:56Z</time>
      </trkpt>
      <trkpt lat="46.43152" lon="-0.36442">
        <ele>100.5950928</ele>
        <time>2011-01-27T14:56:07Z</time>
      </trkpt>
      <trkpt lat="46.43151" lon="-0.36439">
        <ele>100.5950928</ele>
        <time>2011-01-27T14:56:10Z</time>
      </trkpt>
      <trkpt lat="46.43141" lon="-0.36419">
        <ele>100.5950928</ele>
        <time>2011-01-27T14:56:24Z</time>
      </trkpt>
      <trkpt lat="46.43132" lon="-0.36394">
        <ele>100.114502</ele>
        <time>2011-01-27T14:56:41Z</time>
      </trkpt>
      <trkpt lat="46.43134" lon="-0.36388">
        <ele>100.114502</ele>
        <time>2011-01-27T14:56:45Z</time>
      </trkpt>
      <trkpt lat="46.4315" lon="-0.36362">
        <ele>99.6337891</ele>
        <time>2011-01-27T14:57:04Z</time>
      </trkpt>
      <trkpt lat="46.43153" lon="-0.36358">
        <ele>99.1530762</ele>
        <time>2011-01-27T14:57:07Z</time>
      </trkpt>
      <trkpt lat="46.43167" lon="-0.36336">
        <ele>98.6724854</ele>
        <time>2011-01-27T14:57:25Z</time>
      </trkpt>
      <trkpt lat="46.43175" lon="-0.36323">
        <ele>98.6724854</ele>
        <time>2011-01-27T14:57:36Z</time>
      </trkpt>
      <trkpt lat="46.43186" lon="-0.36307">
        <ele>98.1918945</ele>
        <time>2011-01-27T14:57:49Z</time>
      </trkpt>
      <trkpt lat="46.4319" lon="-0.36296">
        <ele>98.1918945</ele>
        <time>2011-01-27T14:57:57Z</time>
      </trkpt>
      <trkpt lat="46.43191" lon="-0.36275">
        <ele>96.2692871</ele>
        <time>2011-01-27T14:58:09Z</time>
      </trkpt>
      <trkpt lat="46.43192" lon="-0.36253">
        <ele>94.8271484</ele>
        <time>2011-01-27T14:58:22Z</time>
      </trkpt>
      <trkpt lat="46.43192" lon="-0.36235">
        <ele>93.8658447</ele>
        <time>2011-01-27T14:58:32Z</time>
      </trkpt>
      <trkpt lat="46.43194" lon="-0.36216">
        <ele>93.3851318</ele>
        <time>2011-01-27T14:58:46Z</time>
      </trkpt>
      <trkpt lat="46.43192" lon="-0.36179">
        <ele>92.4239502</ele>
        <time>2011-01-27T14:59:07Z</time>
      </trkpt>
      <trkpt lat="46.43192" lon="-0.36174">
        <ele>91.9432373</ele>
        <time>2011-01-27T14:59:10Z</time>
      </trkpt>
      <trkpt lat="46.43189" lon="-0.36153">
        <ele>90.9819336</ele>
        <time>2011-01-27T14:59:20Z</time>
      </trkpt>
      <trkpt lat="46.43188" lon="-0.36132">
        <ele>89.539917</ele>
        <time>2011-01-27T14:59:30Z</time>
      </trkpt>
      <trkpt lat="46.43187" lon="-0.36123">
        <ele>88.5787354</ele>
        <time>2011-01-27T14:59:34Z</time>
      </trkpt>
      <trkpt lat="46.43188" lon="-0.36114">
        <ele>88.0980225</ele>
        <time>2011-01-27T14:59:39Z</time>
      </trkpt>
      <trkpt lat="46.43187" lon="-0.36084">
        <ele>87.6171875</ele>
        <time>2011-01-27T14:59:54Z</time>
      </trkpt>
      <trkpt lat="46.43188" lon="-0.36063">
        <ele>87.6171875</ele>
        <time>2011-01-27T15:00:06Z</time>
      </trkpt>
      <trkpt lat="46.43186" lon="-0.36031">
        <ele>88.5787354</ele>
        <time>2011-01-27T15:00:23Z</time>
      </trkpt>
      <trkpt lat="46.43185" lon="-0.36006">
        <ele>89.0593262</ele>
        <time>2011-01-27T15:00:37Z</time>
      </trkpt>
      <trkpt lat="46.43185" lon="-0.36004">
        <ele>89.0593262</ele>
        <time>2011-01-27T15:00:38Z</time>
      </trkpt>
      <trkpt lat="46.43181" lon="-0.35972">
        <ele>89.539917</ele>
        <time>2011-01-27T15:00:55Z</time>
      </trkpt>
      <trkpt lat="46.43185" lon="-0.35942">
        <ele>89.0593262</ele>
        <time>2011-01-27T15:01:09Z</time>
      </trkpt>
      <trkpt lat="46.43193" lon="-0.35919">
        <ele>90.0206299</ele>
        <time>2011-01-27T15:01:22Z</time>
      </trkpt>
      <trkpt lat="46.43202" lon="-0.35896">
        <ele>90.9819336</ele>
        <time>2011-01-27T15:01:36Z</time>
      </trkpt>
      <trkpt lat="46.4321" lon="-0.35877">
        <ele>91.4625244</ele>
        <time>2011-01-27T15:01:49Z</time>
      </trkpt>
      <trkpt lat="46.43212" lon="-0.3587">
        <ele>90.9819336</ele>
        <time>2011-01-27T15:01:54Z</time>
      </trkpt>
      <trkpt lat="46.43221" lon="-0.35848">
        <ele>90.5013428</ele>
        <time>2011-01-27T15:02:08Z</time>
      </trkpt>
      <trkpt lat="46.43228" lon="-0.35824">
        <ele>90.9819336</ele>
        <time>2011-01-27T15:02:21Z</time>
      </trkpt>
      <trkpt lat="46.43233" lon="-0.35802">
        <ele>89.539917</ele>
        <time>2011-01-27T15:02:34Z</time>
      </trkpt>
      <trkpt lat="46.43238" lon="-0.35786">
        <ele>89.0593262</ele>
        <time>2011-01-27T15:02:44Z</time>
      </trkpt>
      <trkpt lat="46.43242" lon="-0.35773">
        <ele>88.5787354</ele>
        <time>2011-01-27T15:02:51Z</time>
      </trkpt>
      <trkpt lat="46.43247" lon="-0.35753">
        <ele>89.539917</ele>
        <time>2011-01-27T15:03:04Z</time>
      </trkpt>
      <trkpt lat="46.43254" lon="-0.35729">
        <ele>90.9819336</ele>
        <time>2011-01-27T15:03:17Z</time>
      </trkpt>
      <trkpt lat="46.43255" lon="-0.35725">
        <ele>90.5013428</ele>
        <time>2011-01-27T15:03:19Z</time>
      </trkpt>
      <trkpt lat="46.43254" lon="-0.35718">
        <ele>89.539917</ele>
        <time>2011-01-27T15:03:24Z</time>
      </trkpt>
      <trkpt lat="46.43254" lon="-0.3571">
        <ele>89.539917</ele>
        <time>2011-01-27T15:03:28Z</time>
      </trkpt>
      <trkpt lat="46.43257" lon="-0.35686">
        <ele>89.539917</ele>
        <time>2011-01-27T15:03:41Z</time>
      </trkpt>
      <trkpt lat="46.43266" lon="-0.35667">
        <ele>88.0980225</ele>
        <time>2011-01-27T15:03:52Z</time>
      </trkpt>
      <trkpt lat="46.4327" lon="-0.35664">
        <ele>88.5787354</ele>
        <time>2011-01-27T15:03:55Z</time>
      </trkpt>
      <trkpt lat="46.43282" lon="-0.35641">
        <ele>90.5013428</ele>
        <time>2011-01-27T15:04:11Z</time>
      </trkpt>
      <trkpt lat="46.43297" lon="-0.35614">
        <ele>91.9432373</ele>
        <time>2011-01-27T15:04:30Z</time>
      </trkpt>
      <trkpt lat="46.43312" lon="-0.35592">
        <ele>89.539917</ele>
        <time>2011-01-27T15:04:47Z</time>
      </trkpt>
      <trkpt lat="46.43313" lon="-0.35591">
        <ele>89.539917</ele>
        <time>2011-01-27T15:04:48Z</time>
      </trkpt>
      <trkpt lat="46.43318" lon="-0.35586">
        <ele>89.0593262</ele>
        <time>2011-01-27T15:04:52Z</time>
      </trkpt>
      <trkpt lat="46.43329" lon="-0.35571">
        <ele>87.1365967</ele>
        <time>2011-01-27T15:05:05Z</time>
      </trkpt>
      <trkpt lat="46.43336" lon="-0.35561">
        <ele>85.6945801</ele>
        <time>2011-01-27T15:05:13Z</time>
      </trkpt>
      <trkpt lat="46.43347" lon="-0.35543">
        <ele>82.3300781</ele>
        <time>2011-01-27T15:05:25Z</time>
      </trkpt>
      <trkpt lat="46.43351" lon="-0.35537">
        <ele>81.3687744</ele>
        <time>2011-01-27T15:05:29Z</time>
      </trkpt>
      <trkpt lat="46.43361" lon="-0.35521">
        <ele>78.9654541</ele>
        <time>2011-01-27T15:05:41Z</time>
      </trkpt>
      <trkpt lat="46.43376" lon="-0.35508">
        <ele>77.0428467</ele>
        <time>2011-01-27T15:05:55Z</time>
      </trkpt>
      <trkpt lat="46.43383" lon="-0.35492">
        <ele>76.0814209</ele>
        <time>2011-01-27T15:06:13Z</time>
      </trkpt>
      <trkpt lat="46.43383" lon="-0.35492">
        <ele>76.5621338</ele>
        <time>2011-01-27T15:06:43Z</time>
      </trkpt>
      <trkpt lat="46.43395" lon="-0.35504">
        <ele>79.9266357</ele>
        <time>2011-01-27T15:07:01Z</time>
      </trkpt>
      <trkpt lat="46.43399" lon="-0.35518">
        <ele>81.3687744</ele>
        <time>2011-01-27T15:07:13Z</time>
      </trkpt>
      <trkpt lat="46.43405" lon="-0.35527">
        <ele>83.2913818</ele>
        <time>2011-01-27T15:07:21Z</time>
      </trkpt>
      <trkpt lat="46.43411" lon="-0.35535">
        <ele>84.2526855</ele>
        <time>2011-01-27T15:07:32Z</time>
      </trkpt>
      <trkpt lat="46.43417" lon="-0.35547">
        <ele>85.2139893</ele>
        <time>2011-01-27T15:07:44Z</time>
      </trkpt>
      <trkpt lat="46.43427" lon="-0.35565">
        <ele>84.2526855</ele>
        <time>2011-01-27T15:08:03Z</time>
      </trkpt>
      <trkpt lat="46.43438" lon="-0.35581">
        <ele>80.8881836</ele>
        <time>2011-01-27T15:08:13Z</time>
      </trkpt>
      <trkpt lat="46.43448" lon="-0.35593">
        <ele>76.5621338</ele>
        <time>2011-01-27T15:08:23Z</time>
      </trkpt>
      <trkpt lat="46.43453" lon="-0.35601">
        <ele>73.1976318</ele>
        <time>2011-01-27T15:08:29Z</time>
      </trkpt>
      <trkpt lat="46.43455" lon="-0.35612">
        <ele>71.7554932</ele>
        <time>2011-01-27T15:08:35Z</time>
      </trkpt>
      <trkpt lat="46.43454" lon="-0.35632">
        <ele>69.3522949</ele>
        <time>2011-01-27T15:08:45Z</time>
      </trkpt>
      <trkpt lat="46.43455" lon="-0.35634">
        <ele>68.3908691</ele>
        <time>2011-01-27T15:08:47Z</time>
      </trkpt>
      <trkpt lat="46.43456" lon="-0.35664">
        <ele>66.4682617</ele>
        <time>2011-01-27T15:09:03Z</time>
      </trkpt>
      <trkpt lat="46.43456" lon="-0.35669">
        <ele>66.4682617</ele>
        <time>2011-01-27T15:09:06Z</time>
      </trkpt>
      <trkpt lat="46.43459" lon="-0.35692">
        <ele>65.9876709</ele>
        <time>2011-01-27T15:09:19Z</time>
      </trkpt>
      <trkpt lat="46.4346" lon="-0.35697">
        <ele>65.5070801</ele>
        <time>2011-01-27T15:09:22Z</time>
      </trkpt>
      <trkpt lat="46.4346" lon="-0.35703">
        <ele>65.5070801</ele>
        <time>2011-01-27T15:09:25Z</time>
      </trkpt>
      <trkpt lat="46.43463" lon="-0.35719">
        <ele>64.5456543</ele>
        <time>2011-01-27T15:09:35Z</time>
      </trkpt>
      <trkpt lat="46.43466" lon="-0.35736">
        <ele>63.5843506</ele>
        <time>2011-01-27T15:09:44Z</time>
      </trkpt>
      <trkpt lat="46.43471" lon="-0.35755">
        <ele>61.6617432</ele>
        <time>2011-01-27T15:09:56Z</time>
      </trkpt>
      <trkpt lat="46.43474" lon="-0.35775">
        <ele>56.8551025</ele>
        <time>2011-01-27T15:10:08Z</time>
      </trkpt>
      <trkpt lat="46.4348" lon="-0.35798">
        <ele>53.9711914</ele>
        <time>2011-01-27T15:10:22Z</time>
      </trkpt>
      <trkpt lat="46.43482" lon="-0.35806">
        <ele>53.4904785</ele>
        <time>2011-01-27T15:10:27Z</time>
      </trkpt>
      <trkpt lat="46.43489" lon="-0.35815">
        <ele>51.5678711</ele>
        <time>2011-01-27T15:10:35Z</time>
      </trkpt>
      <trkpt lat="46.43493" lon="-0.3582">
        <ele>51.0871582</ele>
        <time>2011-01-27T15:10:39Z</time>
      </trkpt>
      <trkpt lat="46.43495" lon="-0.35823">
        <ele>51.0871582</ele>
        <time>2011-01-27T15:10:41Z</time>
      </trkpt>
      <trkpt lat="46.4351" lon="-0.35835">
        <ele>53.0097656</ele>
        <time>2011-01-27T15:10:52Z</time>
      </trkpt>
      <trkpt lat="46.43525" lon="-0.35847">
        <ele>56.3745117</ele>
        <time>2011-01-27T15:11:06Z</time>
      </trkpt>
      <trkpt lat="46.4354" lon="-0.35858">
        <ele>58.77771</ele>
        <time>2011-01-27T15:11:18Z</time>
      </trkpt>
      <trkpt lat="46.43545" lon="-0.3587">
        <ele>60.2197266</ele>
        <time>2011-01-27T15:11:28Z</time>
      </trkpt>
      <trkpt lat="46.43551" lon="-0.35881">
        <ele>61.1810303</ele>
        <time>2011-01-27T15:11:39Z</time>
      </trkpt>
      <trkpt lat="46.43565" lon="-0.35889">
        <ele>62.6229248</ele>
        <time>2011-01-27T15:11:49Z</time>
      </trkpt>
      <trkpt lat="46.43577" lon="-0.35896">
        <ele>63.5843506</ele>
        <time>2011-01-27T15:11:58Z</time>
      </trkpt>
      <trkpt lat="46.43588" lon="-0.35904">
        <ele>64.5456543</ele>
        <time>2011-01-27T15:12:07Z</time>
      </trkpt>
      <trkpt lat="46.4359" lon="-0.35905">
        <ele>64.5456543</ele>
        <time>2011-01-27T15:12:08Z</time>
      </trkpt>
      <trkpt lat="46.43594" lon="-0.35909">
        <ele>65.5070801</ele>
        <time>2011-01-27T15:12:13Z</time>
      </trkpt>
      <trkpt lat="46.43604" lon="-0.35916">
        <ele>65.0263672</ele>
        <time>2011-01-27T15:12:22Z</time>
      </trkpt>
      <trkpt lat="46.43618" lon="-0.35925">
        <ele>64.0650635</ele>
        <time>2011-01-27T15:12:33Z</time>
      </trkpt>
      <trkpt lat="46.43631" lon="-0.35931">
        <ele>65.5070801</ele>
        <time>2011-01-27T15:12:44Z</time>
      </trkpt>
      <trkpt lat="46.43633" lon="-0.35931">
        <ele>65.9876709</ele>
        <time>2011-01-27T15:12:46Z</time>
      </trkpt>
      <trkpt lat="46.43644" lon="-0.35934">
        <ele>67.9102783</ele>
        <time>2011-01-27T15:12:54Z</time>
      </trkpt>
      <trkpt lat="46.43658" lon="-0.35925">
        <ele>67.4296875</ele>
        <time>2011-01-27T15:13:13Z</time>
      </trkpt>
      <trkpt lat="46.4367" lon="-0.3592">
        <ele>65.5070801</ele>
        <time>2011-01-27T15:13:35Z</time>
      </trkpt>
      <trkpt lat="46.43682" lon="-0.35915">
        <ele>63.5843506</ele>
        <time>2011-01-27T15:13:46Z</time>
      </trkpt>
      <trkpt lat="46.43685" lon="-0.35912">
        <ele>63.1036377</ele>
        <time>2011-01-27T15:13:48Z</time>
      </trkpt>
      <trkpt lat="46.43696" lon="-0.35898">
        <ele>60.7003174</ele>
        <time>2011-01-27T15:13:58Z</time>
      </trkpt>
      <trkpt lat="46.43696" lon="-0.35897">
        <ele>60.7003174</ele>
        <time>2011-01-27T15:13:59Z</time>
      </trkpt>
      <trkpt lat="46.43698" lon="-0.35895">
        <ele>60.2197266</ele>
        <time>2011-01-27T15:14:01Z</time>
      </trkpt>
      <trkpt lat="46.43707" lon="-0.35879">
        <ele>59.2584229</ele>
        <time>2011-01-27T15:14:11Z</time>
      </trkpt>
      <trkpt lat="46.43708" lon="-0.35872">
        <ele>59.2584229</ele>
        <time>2011-01-27T15:14:15Z</time>
      </trkpt>
      <trkpt lat="46.43713" lon="-0.35857">
        <ele>54.4517822</ele>
        <time>2011-01-27T15:14:28Z</time>
      </trkpt>
      <trkpt lat="46.43714" lon="-0.35847">
        <ele>53.0097656</ele>
        <time>2011-01-27T15:14:35Z</time>
      </trkpt>
      <trkpt lat="46.43713" lon="-0.35841">
        <ele>52.5291748</ele>
        <time>2011-01-27T15:14:38Z</time>
      </trkpt>
      <trkpt lat="46.43713" lon="-0.35838">
        <ele>51.5678711</ele>
        <time>2011-01-27T15:14:41Z</time>
      </trkpt>
      <trkpt lat="46.43712" lon="-0.35826">
        <ele>48.68396</ele>
        <time>2011-01-27T15:14:50Z</time>
      </trkpt>
      <trkpt lat="46.43711" lon="-0.35817">
        <ele>48.68396</ele>
        <time>2011-01-27T15:14:55Z</time>
      </trkpt>
      <trkpt lat="46.437" lon="-0.35809">
        <ele>46.7612305</ele>
        <time>2011-01-27T15:15:07Z</time>
      </trkpt>
      <trkpt lat="46.43689" lon="-0.35805">
        <ele>44.838623</ele>
        <time>2011-01-27T15:15:17Z</time>
      </trkpt>
      <trkpt lat="46.43679" lon="-0.35801">
        <ele>40.0321045</ele>
        <time>2011-01-27T15:15:27Z</time>
      </trkpt>
      <trkpt lat="46.43669" lon="-0.35797">
        <ele>33.7834473</ele>
        <time>2011-01-27T15:15:38Z</time>
      </trkpt>
      <trkpt lat="46.43657" lon="-0.35791">
        <ele>29.4575195</ele>
        <time>2011-01-27T15:15:49Z</time>
      </trkpt>
      <trkpt lat="46.43644" lon="-0.3578">
        <ele>29.9381104</ele>
        <time>2011-01-27T15:16:02Z</time>
      </trkpt>
      <trkpt lat="46.43629" lon="-0.35767">
        <ele>29.4575195</ele>
        <time>2011-01-27T15:16:15Z</time>
      </trkpt>
      <trkpt lat="46.43623" lon="-0.35763">
        <ele>29.4575195</ele>
        <time>2011-01-27T15:16:21Z</time>
      </trkpt>
      <trkpt lat="46.43605" lon="-0.35747">
        <ele>33.7834473</ele>
        <time>2011-01-27T15:16:36Z</time>
      </trkpt>
      <trkpt lat="46.43592" lon="-0.35732">
        <ele>39.5512695</ele>
        <time>2011-01-27T15:16:49Z</time>
      </trkpt>
      <trkpt lat="46.43591" lon="-0.35731">
        <ele>40.0321045</ele>
        <time>2011-01-27T15:16:50Z</time>
      </trkpt>
      <trkpt lat="46.43588" lon="-0.35725">
        <ele>41.9547119</ele>
        <time>2011-01-27T15:16:54Z</time>
      </trkpt>
      <trkpt lat="46.43578" lon="-0.35709">
        <ele>47.2418213</ele>
        <time>2011-01-27T15:17:05Z</time>
      </trkpt>
      <trkpt lat="46.43574" lon="-0.35704">
        <ele>49.1645508</ele>
        <time>2011-01-27T15:17:09Z</time>
      </trkpt>
      <trkpt lat="46.43561" lon="-0.3569">
        <ele>52.048584</ele>
        <time>2011-01-27T15:17:23Z</time>
      </trkpt>
      <trkpt lat="46.43551" lon="-0.3567">
        <ele>52.5291748</ele>
        <time>2011-01-27T15:17:38Z</time>
      </trkpt>
      <trkpt lat="46.43544" lon="-0.35659">
        <ele>59.2584229</ele>
        <time>2011-01-27T15:17:47Z</time>
      </trkpt>
      <trkpt lat="46.43543" lon="-0.35643">
        <ele>60.2197266</ele>
        <time>2011-01-27T15:17:57Z</time>
      </trkpt>
      <trkpt lat="46.43545" lon="-0.35624">
        <ele>62.6229248</ele>
        <time>2011-01-27T15:18:08Z</time>
      </trkpt>
      <trkpt lat="46.43546" lon="-0.35619">
        <ele>62.6229248</ele>
        <time>2011-01-27T15:18:11Z</time>
      </trkpt>
      <trkpt lat="46.4355" lon="-0.35597">
        <ele>64.0650635</ele>
        <time>2011-01-27T15:18:25Z</time>
      </trkpt>
      <trkpt lat="46.43551" lon="-0.35596">
        <ele>64.0650635</ele>
        <time>2011-01-27T15:18:26Z</time>
      </trkpt>
      <trkpt lat="46.43552" lon="-0.35591">
        <ele>65.0263672</ele>
        <time>2011-01-27T15:18:32Z</time>
      </trkpt>
      <trkpt lat="46.43557" lon="-0.3557">
        <ele>64.5456543</ele>
        <time>2011-01-27T15:18:46Z</time>
      </trkpt>
      <trkpt lat="46.43558" lon="-0.35569">
        <ele>64.5456543</ele>
        <time>2011-01-27T15:18:47Z</time>
      </trkpt>
      <trkpt lat="46.43563" lon="-0.35553">
        <ele>65.5070801</ele>
        <time>2011-01-27T15:18:58Z</time>
      </trkpt>
      <trkpt lat="46.43564" lon="-0.35549">
        <ele>65.9876709</ele>
        <time>2011-01-27T15:19:01Z</time>
      </trkpt>
      <trkpt lat="46.43565" lon="-0.35543">
        <ele>65.9876709</ele>
        <time>2011-01-27T15:19:05Z</time>
      </trkpt>
      <trkpt lat="46.43569" lon="-0.35523">
        <ele>66.9489746</ele>
        <time>2011-01-27T15:19:16Z</time>
      </trkpt>
      <trkpt lat="46.43575" lon="-0.35501">
        <ele>65.5070801</ele>
        <time>2011-01-27T15:19:30Z</time>
      </trkpt>
      <trkpt lat="46.43578" lon="-0.35487">
        <ele>65.0263672</ele>
        <time>2011-01-27T15:19:37Z</time>
      </trkpt>
      <trkpt lat="46.43581" lon="-0.35478">
        <ele>65.5070801</ele>
        <time>2011-01-27T15:19:43Z</time>
      </trkpt>
      <trkpt lat="46.43587" lon="-0.35466">
        <ele>65.9876709</ele>
        <time>2011-01-27T15:19:52Z</time>
      </trkpt>
      <trkpt lat="46.43595" lon="-0.35461">
        <ele>67.4296875</ele>
        <time>2011-01-27T15:20:00Z</time>
      </trkpt>
      <trkpt lat="46.43603" lon="-0.35466">
        <ele>69.8328857</ele>
        <time>2011-01-27T15:20:11Z</time>
      </trkpt>
      <trkpt lat="46.43613" lon="-0.35471">
        <ele>71.7554932</ele>
        <time>2011-01-27T15:20:25Z</time>
      </trkpt>
      <trkpt lat="46.43619" lon="-0.35469">
        <ele>74.6395264</ele>
        <time>2011-01-27T15:20:43Z</time>
      </trkpt>
      <trkpt lat="46.43621" lon="-0.35466">
        <ele>76.0814209</ele>
        <time>2011-01-27T15:20:47Z</time>
      </trkpt>
      <trkpt lat="46.43627" lon="-0.3546">
        <ele>80.8881836</ele>
        <time>2011-01-27T15:20:57Z</time>
      </trkpt>
      <trkpt lat="46.43627" lon="-0.35459">
        <ele>81.3687744</ele>
        <time>2011-01-27T15:20:58Z</time>
      </trkpt>
      <trkpt lat="46.43619" lon="-0.3544">
        <ele>83.7719727</ele>
        <time>2011-01-27T15:21:12Z</time>
      </trkpt>
      <trkpt lat="46.43617" lon="-0.35433">
        <ele>82.810791</ele>
        <time>2011-01-27T15:21:17Z</time>
      </trkpt>
      <trkpt lat="46.43605" lon="-0.35412">
        <ele>80.4074707</ele>
        <time>2011-01-27T15:21:32Z</time>
      </trkpt>
      <trkpt lat="46.43603" lon="-0.35407">
        <ele>79.4460449</ele>
        <time>2011-01-27T15:21:35Z</time>
      </trkpt>
      <trkpt lat="46.43592" lon="-0.35384">
        <ele>77.0428467</ele>
        <time>2011-01-27T15:21:51Z</time>
      </trkpt>
      <trkpt lat="46.43589" lon="-0.35374">
        <ele>76.5621338</ele>
        <time>2011-01-27T15:21:57Z</time>
      </trkpt>
      <trkpt lat="46.43593" lon="-0.35363">
        <ele>78.4847412</ele>
        <time>2011-01-27T15:22:04Z</time>
      </trkpt>
      <trkpt lat="46.43597" lon="-0.35362">
        <ele>79.4460449</ele>
        <time>2011-01-27T15:22:08Z</time>
      </trkpt>
      <trkpt lat="46.43604" lon="-0.35362">
        <ele>80.8881836</ele>
        <time>2011-01-27T15:22:13Z</time>
      </trkpt>
      <trkpt lat="46.43613" lon="-0.35365">
        <ele>79.9266357</ele>
        <time>2011-01-27T15:22:21Z</time>
      </trkpt>
      <trkpt lat="46.43626" lon="-0.35367">
        <ele>78.4847412</ele>
        <time>2011-01-27T15:22:32Z</time>
      </trkpt>
      <trkpt lat="46.43642" lon="-0.35362">
        <ele>78.9654541</ele>
        <time>2011-01-27T15:22:45Z</time>
      </trkpt>
      <trkpt lat="46.43642" lon="-0.35355">
        <ele>79.9266357</ele>
        <time>2011-01-27T15:22:56Z</time>
      </trkpt>
      <trkpt lat="46.43637" lon="-0.35349">
        <ele>80.8881836</ele>
        <time>2011-01-27T15:23:02Z</time>
      </trkpt>
      <trkpt lat="46.43623" lon="-0.35342">
        <ele>83.7719727</ele>
        <time>2011-01-27T15:23:14Z</time>
      </trkpt>
      <trkpt lat="46.43608" lon="-0.35328">
        <ele>85.2139893</ele>
        <time>2011-01-27T15:23:28Z</time>
      </trkpt>
      <trkpt lat="46.43599" lon="-0.3532">
        <ele>86.175293</ele>
        <time>2011-01-27T15:23:36Z</time>
      </trkpt>
      <trkpt lat="46.43596" lon="-0.35316">
        <ele>86.6560059</ele>
        <time>2011-01-27T15:23:39Z</time>
      </trkpt>
      <trkpt lat="46.43583" lon="-0.35302">
        <ele>88.0980225</ele>
        <time>2011-01-27T15:23:53Z</time>
      </trkpt>
      <trkpt lat="46.43574" lon="-0.35292">
        <ele>88.5787354</ele>
        <time>2011-01-27T15:24:02Z</time>
      </trkpt>
      <trkpt lat="46.43562" lon="-0.35282">
        <ele>89.0593262</ele>
        <time>2011-01-27T15:24:14Z</time>
      </trkpt>
      <trkpt lat="46.43558" lon="-0.35277">
        <ele>89.539917</ele>
        <time>2011-01-27T15:24:19Z</time>
      </trkpt>
      <trkpt lat="46.43542" lon="-0.35265">
        <ele>90.0206299</ele>
        <time>2011-01-27T15:24:33Z</time>
      </trkpt>
      <trkpt lat="46.43526" lon="-0.35253">
        <ele>90.0206299</ele>
        <time>2011-01-27T15:24:49Z</time>
      </trkpt>
      <trkpt lat="46.43521" lon="-0.3525">
        <ele>90.0206299</ele>
        <time>2011-01-27T15:24:54Z</time>
      </trkpt>
      <trkpt lat="46.43503" lon="-0.35242">
        <ele>90.5013428</ele>
        <time>2011-01-27T15:25:09Z</time>
      </trkpt>
      <trkpt lat="46.43502" lon="-0.35241">
        <ele>90.5013428</ele>
        <time>2011-01-27T15:25:10Z</time>
      </trkpt>
      <trkpt lat="46.43501" lon="-0.35235">
        <ele>90.5013428</ele>
        <time>2011-01-27T15:25:14Z</time>
      </trkpt>
      <trkpt lat="46.43513" lon="-0.35228">
        <ele>90.0206299</ele>
        <time>2011-01-27T15:25:26Z</time>
      </trkpt>
      <trkpt lat="46.43523" lon="-0.35224">
        <ele>90.9819336</ele>
        <time>2011-01-27T15:25:34Z</time>
      </trkpt>
      <trkpt lat="46.43533" lon="-0.35219">
        <ele>90.9819336</ele>
        <time>2011-01-27T15:25:45Z</time>
      </trkpt>
      <trkpt lat="46.43541" lon="-0.35216">
        <ele>91.9432373</ele>
        <time>2011-01-27T15:25:54Z</time>
      </trkpt>
      <trkpt lat="46.43557" lon="-0.35209">
        <ele>92.4239502</ele>
        <time>2011-01-27T15:26:06Z</time>
      </trkpt>
      <trkpt lat="46.43571" lon="-0.35205">
        <ele>91.9432373</ele>
        <time>2011-01-27T15:26:16Z</time>
      </trkpt>
      <trkpt lat="46.43588" lon="-0.35199">
        <ele>92.4239502</ele>
        <time>2011-01-27T15:26:29Z</time>
      </trkpt>
      <trkpt lat="46.43598" lon="-0.35195">
        <ele>93.3851318</ele>
        <time>2011-01-27T15:26:39Z</time>
      </trkpt>
      <trkpt lat="46.43608" lon="-0.35191">
        <ele>93.3851318</ele>
        <time>2011-01-27T15:26:47Z</time>
      </trkpt>
      <trkpt lat="46.43619" lon="-0.35188">
        <ele>93.3851318</ele>
        <time>2011-01-27T15:26:58Z</time>
      </trkpt>
      <trkpt lat="46.43624" lon="-0.35187">
        <ele>93.3851318</ele>
        <time>2011-01-27T15:27:02Z</time>
      </trkpt>
      <trkpt lat="46.4364" lon="-0.35181">
        <ele>93.8658447</ele>
        <time>2011-01-27T15:27:17Z</time>
      </trkpt>
      <trkpt lat="46.43653" lon="-0.35177">
        <ele>93.8658447</ele>
        <time>2011-01-27T15:27:28Z</time>
      </trkpt>
      <trkpt lat="46.43666" lon="-0.35173">
        <ele>93.8658447</ele>
        <time>2011-01-27T15:27:40Z</time>
      </trkpt>
      <trkpt lat="46.43676" lon="-0.35168">
        <ele>93.3851318</ele>
        <time>2011-01-27T15:27:49Z</time>
      </trkpt>
      <trkpt lat="46.43689" lon="-0.35163">
        <ele>93.8658447</ele>
        <time>2011-01-27T15:28:01Z</time>
      </trkpt>
      <trkpt lat="46.43706" lon="-0.35156">
        <ele>95.3077393</ele>
        <time>2011-01-27T15:28:16Z</time>
      </trkpt>
      <trkpt lat="46.4372" lon="-0.35152">
        <ele>95.7884521</ele>
        <time>2011-01-27T15:28:27Z</time>
      </trkpt>
      <trkpt lat="46.43729" lon="-0.35148">
        <ele>95.7884521</ele>
        <time>2011-01-27T15:28:36Z</time>
      </trkpt>
      <trkpt lat="46.43733" lon="-0.35146">
        <ele>95.7884521</ele>
        <time>2011-01-27T15:28:39Z</time>
      </trkpt>
      <trkpt lat="46.43736" lon="-0.35138">
        <ele>95.7884521</ele>
        <time>2011-01-27T15:29:01Z</time>
      </trkpt>
      <trkpt lat="46.43735" lon="-0.35137">
        <ele>95.7884521</ele>
        <time>2011-01-27T15:29:16Z</time>
      </trkpt>
      <trkpt lat="46.43734" lon="-0.35116">
        <ele>95.3077393</ele>
        <time>2011-01-27T15:29:31Z</time>
      </trkpt>
      <trkpt lat="46.43734" lon="-0.35099">
        <ele>93.8658447</ele>
        <time>2011-01-27T15:29:42Z</time>
      </trkpt>
      <trkpt lat="46.43729" lon="-0.35064">
        <ele>93.8658447</ele>
        <time>2011-01-27T15:30:00Z</time>
      </trkpt>
      <trkpt lat="46.43726" lon="-0.35057">
        <ele>94.8271484</ele>
        <time>2011-01-27T15:30:11Z</time>
      </trkpt>
      <trkpt lat="46.43726" lon="-0.3503">
        <ele>94.3465576</ele>
        <time>2011-01-27T15:30:26Z</time>
      </trkpt>
      <trkpt lat="46.43726" lon="-0.35023">
        <ele>93.8658447</ele>
        <time>2011-01-27T15:30:38Z</time>
      </trkpt>
      <trkpt lat="46.43723" lon="-0.35002">
        <ele>92.904541</ele>
        <time>2011-01-27T15:30:54Z</time>
      </trkpt>
      <trkpt lat="46.4372" lon="-0.34985">
        <ele>88.5787354</ele>
        <time>2011-01-27T15:31:05Z</time>
      </trkpt>
      <trkpt lat="46.43715" lon="-0.34976">
        <ele>83.2913818</ele>
        <time>2011-01-27T15:31:13Z</time>
      </trkpt>
      <trkpt lat="46.43703" lon="-0.34959">
        <ele>73.6782227</ele>
        <time>2011-01-27T15:31:32Z</time>
      </trkpt>
      <trkpt lat="46.4369" lon="-0.34959">
        <ele>69.8328857</ele>
        <time>2011-01-27T15:31:44Z</time>
      </trkpt>
      <trkpt lat="46.43689" lon="-0.34959">
        <ele>69.3522949</ele>
        <time>2011-01-27T15:31:45Z</time>
      </trkpt>
      <trkpt lat="46.43671" lon="-0.3496">
        <ele>64.5456543</ele>
        <time>2011-01-27T15:32:05Z</time>
      </trkpt>
      <trkpt lat="46.43659" lon="-0.34961">
        <ele>63.5843506</ele>
        <time>2011-01-27T15:32:14Z</time>
      </trkpt>
      <trkpt lat="46.43643" lon="-0.34958">
        <ele>62.6229248</ele>
        <time>2011-01-27T15:32:29Z</time>
      </trkpt>
      <trkpt lat="46.43628" lon="-0.3495">
        <ele>60.7003174</ele>
        <time>2011-01-27T15:32:40Z</time>
      </trkpt>
      <trkpt lat="46.43607" lon="-0.34937">
        <ele>55.8937988</ele>
        <time>2011-01-27T15:32:59Z</time>
      </trkpt>
      <trkpt lat="46.43595" lon="-0.34925">
        <ele>49.6452637</ele>
        <time>2011-01-27T15:33:12Z</time>
      </trkpt>
      <trkpt lat="46.43564" lon="-0.34903">
        <ele>36.6674805</ele>
        <time>2011-01-27T15:33:45Z</time>
      </trkpt>
      <trkpt lat="46.43548" lon="-0.34896">
        <ele>33.7834473</ele>
        <time>2011-01-27T15:33:59Z</time>
      </trkpt>
      <trkpt lat="46.43525" lon="-0.34877">
        <ele>28.0155029</ele>
        <time>2011-01-27T15:34:18Z</time>
      </trkpt>
      <trkpt lat="46.43507" lon="-0.34867">
        <ele>19.8443604</ele>
        <time>2011-01-27T15:34:36Z</time>
      </trkpt>
      <trkpt lat="46.43496" lon="-0.34869">
        <ele>16.4797363</ele>
        <time>2011-01-27T15:34:47Z</time>
      </trkpt>
      <trkpt lat="46.43478" lon="-0.34875">
        <ele>9.7506104</ele>
        <time>2011-01-27T15:35:04Z</time>
      </trkpt>
      <trkpt lat="46.43473" lon="-0.34876">
        <ele>8.7891846</ele>
        <time>2011-01-27T15:35:07Z</time>
      </trkpt>
      <trkpt lat="46.43448" lon="-0.34867">
        <ele>5.4245605</ele>
        <time>2011-01-27T15:35:23Z</time>
      </trkpt>
      <trkpt lat="46.43435" lon="-0.34866">
        <ele>3.5019531</ele>
        <time>2011-01-27T15:35:36Z</time>
      </trkpt>
      <trkpt lat="46.43422" lon="-0.34866">
        <ele>1.5793457</ele>
        <time>2011-01-27T15:35:49Z</time>
      </trkpt>
      <trkpt lat="46.43403" lon="-0.34865">
        <ele>4.4632568</ele>
        <time>2011-01-27T15:36:06Z</time>
      </trkpt>
      <trkpt lat="46.4338" lon="-0.34868">
        <ele>10.711792</ele>
        <time>2011-01-27T15:36:23Z</time>
      </trkpt>
      <trkpt lat="46.4336" lon="-0.34886">
        <ele>18.4023438</ele>
        <time>2011-01-27T15:36:42Z</time>
      </trkpt>
      <trkpt lat="46.43357" lon="-0.34892">
        <ele>20.3249512</ele>
        <time>2011-01-27T15:36:46Z</time>
      </trkpt>
      <trkpt lat="46.43356" lon="-0.34901">
        <ele>22.2475586</ele>
        <time>2011-01-27T15:36:51Z</time>
      </trkpt>
      <trkpt lat="46.43355" lon="-0.34905">
        <ele>22.7282715</ele>
        <time>2011-01-27T15:36:53Z</time>
      </trkpt>
      <trkpt lat="46.43355" lon="-0.34924">
        <ele>27.0543213</ele>
        <time>2011-01-27T15:37:03Z</time>
      </trkpt>
      <trkpt lat="46.43358" lon="-0.34938">
        <ele>29.9381104</ele>
        <time>2011-01-27T15:37:12Z</time>
      </trkpt>
      <trkpt lat="46.43359" lon="-0.34945">
        <ele>32.3415527</ele>
        <time>2011-01-27T15:37:16Z</time>
      </trkpt>
      <trkpt lat="46.43364" lon="-0.3496">
        <ele>36.6674805</ele>
        <time>2011-01-27T15:37:27Z</time>
      </trkpt>
      <trkpt lat="46.43358" lon="-0.3497">
        <ele>39.5512695</ele>
        <time>2011-01-27T15:37:29Z</time>
      </trkpt>
      <trkpt lat="46.4336" lon="-0.34977">
        <ele>39.0706787</ele>
        <time>2011-01-27T15:37:34Z</time>
      </trkpt>
      <trkpt lat="46.43364" lon="-0.34997">
        <ele>36.1867676</ele>
        <time>2011-01-27T15:37:48Z</time>
      </trkpt>
      <trkpt lat="46.4337" lon="-0.35027">
        <ele>38.109375</ele>
        <time>2011-01-27T15:38:05Z</time>
      </trkpt>
      <trkpt lat="46.43372" lon="-0.35039">
        <ele>37.1480713</ele>
        <time>2011-01-27T15:38:15Z</time>
      </trkpt>
      <trkpt lat="46.43371" lon="-0.35067">
        <ele>38.109375</ele>
        <time>2011-01-27T15:38:39Z</time>
      </trkpt>
      <trkpt lat="46.43354" lon="-0.35095">
        <ele>39.0706787</ele>
        <time>2011-01-27T15:38:52Z</time>
      </trkpt>
      <trkpt lat="46.43342" lon="-0.35113">
        <ele>39.5512695</ele>
        <time>2011-01-27T15:39:04Z</time>
      </trkpt>
      <trkpt lat="46.43331" lon="-0.35111">
        <ele>39.5512695</ele>
        <time>2011-01-27T15:39:16Z</time>
      </trkpt>
      <trkpt lat="46.43329" lon="-0.35108">
        <ele>39.5512695</ele>
        <time>2011-01-27T15:39:18Z</time>
      </trkpt>
      <trkpt lat="46.43322" lon="-0.3509">
        <ele>37.1480713</ele>
        <time>2011-01-27T15:39:31Z</time>
      </trkpt>
      <trkpt lat="46.43316" lon="-0.35071">
        <ele>34.744873</ele>
        <time>2011-01-27T15:39:43Z</time>
      </trkpt>
      <trkpt lat="46.43311" lon="-0.35051">
        <ele>34.744873</ele>
        <time>2011-01-27T15:39:57Z</time>
      </trkpt>
      <trkpt lat="46.43295" lon="-0.3503">
        <ele>29.4575195</ele>
        <time>2011-01-27T15:40:21Z</time>
      </trkpt>
      <trkpt lat="46.43293" lon="-0.35029">
        <ele>28.9769287</ele>
        <time>2011-01-27T15:40:23Z</time>
      </trkpt>
      <trkpt lat="46.43278" lon="-0.3502">
        <ele>27.0543213</ele>
        <time>2011-01-27T15:40:37Z</time>
      </trkpt>
      <trkpt lat="46.43269" lon="-0.3502">
        <ele>25.6123047</ele>
        <time>2011-01-27T15:40:44Z</time>
      </trkpt>
      <trkpt lat="46.43254" lon="-0.35024">
        <ele>25.6123047</ele>
        <time>2011-01-27T15:40:58Z</time>
      </trkpt>
      <trkpt lat="46.43237" lon="-0.35026">
        <ele>28.9769287</ele>
        <time>2011-01-27T15:41:10Z</time>
      </trkpt>
      <trkpt lat="46.43225" lon="-0.35029">
        <ele>30.8995361</ele>
        <time>2011-01-27T15:41:21Z</time>
      </trkpt>
      <trkpt lat="46.43202" lon="-0.35033">
        <ele>36.6674805</ele>
        <time>2011-01-27T15:41:41Z</time>
      </trkpt>
      <trkpt lat="46.43188" lon="-0.35038">
        <ele>43.8773193</ele>
        <time>2011-01-27T15:41:54Z</time>
      </trkpt>
      <trkpt lat="46.4318" lon="-0.3504">
        <ele>47.2418213</ele>
        <time>2011-01-27T15:42:01Z</time>
      </trkpt>
      <trkpt lat="46.43165" lon="-0.35044">
        <ele>51.5678711</ele>
        <time>2011-01-27T15:42:16Z</time>
      </trkpt>
      <trkpt lat="46.43164" lon="-0.35044">
        <ele>52.048584</ele>
        <time>2011-01-27T15:42:17Z</time>
      </trkpt>
      <trkpt lat="46.43145" lon="-0.35048">
        <ele>55.8937988</ele>
        <time>2011-01-27T15:42:32Z</time>
      </trkpt>
      <trkpt lat="46.43124" lon="-0.35051">
        <ele>61.1810303</ele>
        <time>2011-01-27T15:42:49Z</time>
      </trkpt>
      <trkpt lat="46.43098" lon="-0.35054">
        <ele>66.9489746</ele>
        <time>2011-01-27T15:43:08Z</time>
      </trkpt>
      <trkpt lat="46.43076" lon="-0.3506">
        <ele>70.7941895</ele>
        <time>2011-01-27T15:43:26Z</time>
      </trkpt>
      <trkpt lat="46.43063" lon="-0.35064">
        <ele>72.7169189</ele>
        <time>2011-01-27T15:43:37Z</time>
      </trkpt>
      <trkpt lat="46.43041" lon="-0.35075">
        <ele>75.6008301</ele>
        <time>2011-01-27T15:43:55Z</time>
      </trkpt>
      <trkpt lat="46.4302" lon="-0.35089">
        <ele>80.4074707</ele>
        <time>2011-01-27T15:44:14Z</time>
      </trkpt>
      <trkpt lat="46.43006" lon="-0.35103">
        <ele>83.2913818</ele>
        <time>2011-01-27T15:44:29Z</time>
      </trkpt>
      <trkpt lat="46.42991" lon="-0.3512">
        <ele>84.7333984</ele>
        <time>2011-01-27T15:44:45Z</time>
      </trkpt>
      <trkpt lat="46.42974" lon="-0.35138">
        <ele>89.539917</ele>
        <time>2011-01-27T15:45:03Z</time>
      </trkpt>
      <trkpt lat="46.42959" lon="-0.35151">
        <ele>93.8658447</ele>
        <time>2011-01-27T15:45:16Z</time>
      </trkpt>
      <trkpt lat="46.42947" lon="-0.3516">
        <ele>95.7884521</ele>
        <time>2011-01-27T15:45:29Z</time>
      </trkpt>
      <trkpt lat="46.42934" lon="-0.35169">
        <ele>97.2304688</ele>
        <time>2011-01-27T15:45:42Z</time>
      </trkpt>
      <trkpt lat="46.42923" lon="-0.3518">
        <ele>98.6724854</ele>
        <time>2011-01-27T15:45:56Z</time>
      </trkpt>
      <trkpt lat="46.42908" lon="-0.35195">
        <ele>99.6337891</ele>
        <time>2011-01-27T15:46:11Z</time>
      </trkpt>
      <trkpt lat="46.42892" lon="-0.35212">
        <ele>100.114502</ele>
        <time>2011-01-27T15:46:27Z</time>
      </trkpt>
      <trkpt lat="46.42886" lon="-0.35217">
        <ele>100.114502</ele>
        <time>2011-01-27T15:46:33Z</time>
      </trkpt>
      <trkpt lat="46.42882" lon="-0.35221">
        <ele>100.114502</ele>
        <time>2011-01-27T15:46:37Z</time>
      </trkpt>
      <trkpt lat="46.42867" lon="-0.35238">
        <ele>100.114502</ele>
        <time>2011-01-27T15:46:51Z</time>
      </trkpt>
      <trkpt lat="46.42855" lon="-0.3525">
        <ele>102.5177002</ele>
        <time>2011-01-27T15:47:03Z</time>
      </trkpt>
      <trkpt lat="46.4284" lon="-0.35263">
        <ele>103.4790039</ele>
        <time>2011-01-27T15:47:16Z</time>
      </trkpt>
      <trkpt lat="46.42829" lon="-0.3527">
        <ele>102.998291</ele>
        <time>2011-01-27T15:47:26Z</time>
      </trkpt>
      <trkpt lat="46.42822" lon="-0.35272">
        <ele>102.5177002</ele>
        <time>2011-01-27T15:47:32Z</time>
      </trkpt>
      <trkpt lat="46.4281" lon="-0.3528">
        <ele>101.5563965</ele>
        <time>2011-01-27T15:47:43Z</time>
      </trkpt>
      <trkpt lat="46.42801" lon="-0.35289">
        <ele>100.114502</ele>
        <time>2011-01-27T15:47:53Z</time>
      </trkpt>
      <trkpt lat="46.42793" lon="-0.35298">
        <ele>98.6724854</ele>
        <time>2011-01-27T15:48:03Z</time>
      </trkpt>
      <trkpt lat="46.42781" lon="-0.35308">
        <ele>96.7498779</ele>
        <time>2011-01-27T15:48:16Z</time>
      </trkpt>
      <trkpt lat="46.42769" lon="-0.35317">
        <ele>95.7884521</ele>
        <time>2011-01-27T15:48:28Z</time>
      </trkpt>
      <trkpt lat="46.42759" lon="-0.35326">
        <ele>92.904541</ele>
        <time>2011-01-27T15:48:41Z</time>
      </trkpt>
      <trkpt lat="46.42739" lon="-0.35331">
        <ele>89.539917</ele>
        <time>2011-01-27T15:49:01Z</time>
      </trkpt>
      <trkpt lat="46.42721" lon="-0.35333">
        <ele>90.5013428</ele>
        <time>2011-01-27T15:49:13Z</time>
      </trkpt>
      <trkpt lat="46.42705" lon="-0.35331">
        <ele>89.0593262</ele>
        <time>2011-01-27T15:49:27Z</time>
      </trkpt>
      <trkpt lat="46.42701" lon="-0.3533">
        <ele>88.0980225</ele>
        <time>2011-01-27T15:49:31Z</time>
      </trkpt>
      <trkpt lat="46.42688" lon="-0.35322">
        <ele>85.2139893</ele>
        <time>2011-01-27T15:49:44Z</time>
      </trkpt>
      <trkpt lat="46.42675" lon="-0.35318">
        <ele>82.3300781</ele>
        <time>2011-01-27T15:49:56Z</time>
      </trkpt>
      <trkpt lat="46.42664" lon="-0.35314">
        <ele>78.4847412</ele>
        <time>2011-01-27T15:50:07Z</time>
      </trkpt>
      <trkpt lat="46.42653" lon="-0.3531">
        <ele>74.6395264</ele>
        <time>2011-01-27T15:50:18Z</time>
      </trkpt>
      <trkpt lat="46.42642" lon="-0.35305">
        <ele>69.8328857</ele>
        <time>2011-01-27T15:50:29Z</time>
      </trkpt>
      <trkpt lat="46.42629" lon="-0.35298">
        <ele>65.0263672</ele>
        <time>2011-01-27T15:50:41Z</time>
      </trkpt>
      <trkpt lat="46.4261" lon="-0.35291">
        <ele>62.142334</ele>
        <time>2011-01-27T15:50:57Z</time>
      </trkpt>
      <trkpt lat="46.42593" lon="-0.35287">
        <ele>62.142334</ele>
        <time>2011-01-27T15:51:11Z</time>
      </trkpt>
      <trkpt lat="46.42584" lon="-0.3528">
        <ele>64.0650635</ele>
        <time>2011-01-27T15:51:22Z</time>
      </trkpt>
      <trkpt lat="46.42583" lon="-0.35257">
        <ele>60.7003174</ele>
        <time>2011-01-27T15:51:53Z</time>
      </trkpt>
      <trkpt lat="46.42584" lon="-0.35246">
        <ele>58.2971191</ele>
        <time>2011-01-27T15:52:02Z</time>
      </trkpt>
      <trkpt lat="46.42585" lon="-0.35223">
        <ele>49.6452637</ele>
        <time>2011-01-27T15:52:24Z</time>
      </trkpt>
      <trkpt lat="46.42583" lon="-0.35204">
        <ele>45.7999268</ele>
        <time>2011-01-27T15:52:40Z</time>
      </trkpt>
      <trkpt lat="46.42584" lon="-0.35181">
        <ele>45.3192139</ele>
        <time>2011-01-27T15:52:55Z</time>
      </trkpt>
      <trkpt lat="46.42583" lon="-0.35158">
        <ele>57.3358154</ele>
        <time>2011-01-27T15:53:09Z</time>
      </trkpt>
      <trkpt lat="46.4258" lon="-0.35156">
        <ele>61.6617432</ele>
        <time>2011-01-27T15:54:26Z</time>
      </trkpt>
      <trkpt lat="46.42584" lon="-0.35143">
        <ele>62.6229248</ele>
        <time>2011-01-27T15:55:08Z</time>
      </trkpt>
      <trkpt lat="46.42589" lon="-0.35133">
        <ele>63.5843506</ele>
        <time>2011-01-27T15:55:23Z</time>
      </trkpt>
      <trkpt lat="46.42595" lon="-0.35117">
        <ele>70.3134766</ele>
        <time>2011-01-27T15:55:54Z</time>
      </trkpt>
      <trkpt lat="46.42597" lon="-0.35104">
        <ele>72.7169189</ele>
        <time>2011-01-27T15:56:13Z</time>
      </trkpt>
      <trkpt lat="46.42601" lon="-0.35088">
        <ele>71.7554932</ele>
        <time>2011-01-27T15:56:25Z</time>
      </trkpt>
      <trkpt lat="46.42603" lon="-0.35073">
        <ele>70.7941895</ele>
        <time>2011-01-27T15:56:35Z</time>
      </trkpt>
      <trkpt lat="46.42605" lon="-0.3505">
        <ele>72.7169189</ele>
        <time>2011-01-27T15:56:50Z</time>
      </trkpt>
      <trkpt lat="46.42597" lon="-0.35025">
        <ele>73.6782227</ele>
        <time>2011-01-27T15:57:11Z</time>
      </trkpt>
      <trkpt lat="46.42592" lon="-0.35008">
        <ele>74.6395264</ele>
        <time>2011-01-27T15:57:22Z</time>
      </trkpt>
      <trkpt lat="46.42588" lon="-0.34996">
        <ele>75.6008301</ele>
        <time>2011-01-27T15:57:30Z</time>
      </trkpt>
      <trkpt lat="46.42584" lon="-0.34971">
        <ele>75.6008301</ele>
        <time>2011-01-27T15:57:45Z</time>
      </trkpt>
      <trkpt lat="46.42583" lon="-0.34951">
        <ele>75.1202393</ele>
        <time>2011-01-27T15:58:00Z</time>
      </trkpt>
      <trkpt lat="46.42583" lon="-0.34924">
        <ele>76.5621338</ele>
        <time>2011-01-27T15:58:14Z</time>
      </trkpt>
      <trkpt lat="46.42585" lon="-0.34907">
        <ele>78.9654541</ele>
        <time>2011-01-27T15:58:24Z</time>
      </trkpt>
      <trkpt lat="46.42587" lon="-0.34889">
        <ele>78.9654541</ele>
        <time>2011-01-27T15:58:37Z</time>
      </trkpt>
      <trkpt lat="46.42593" lon="-0.34868">
        <ele>74.1588135</ele>
        <time>2011-01-27T15:58:52Z</time>
      </trkpt>
      <trkpt lat="46.42596" lon="-0.34847">
        <ele>71.7554932</ele>
        <time>2011-01-27T15:59:05Z</time>
      </trkpt>
      <trkpt lat="46.42597" lon="-0.34832">
        <ele>76.5621338</ele>
        <time>2011-01-27T15:59:14Z</time>
      </trkpt>
      <trkpt lat="46.42597" lon="-0.34831">
        <ele>77.0428467</ele>
        <time>2011-01-27T15:59:15Z</time>
      </trkpt>
      <trkpt lat="46.42599" lon="-0.34824">
        <ele>77.0428467</ele>
        <time>2011-01-27T15:59:19Z</time>
      </trkpt>
      <trkpt lat="46.42599" lon="-0.3482">
        <ele>77.5234375</ele>
        <time>2011-01-27T15:59:21Z</time>
      </trkpt>
      <trkpt lat="46.426" lon="-0.34817">
        <ele>77.5234375</ele>
        <time>2011-01-27T15:59:23Z</time>
      </trkpt>
      <trkpt lat="46.42602" lon="-0.34797">
        <ele>75.6008301</ele>
        <time>2011-01-27T15:59:38Z</time>
      </trkpt>
      <trkpt lat="46.42603" lon="-0.34789">
        <ele>76.0814209</ele>
        <time>2011-01-27T15:59:43Z</time>
      </trkpt>
      <trkpt lat="46.42607" lon="-0.3477">
        <ele>75.6008301</ele>
        <time>2011-01-27T15:59:55Z</time>
      </trkpt>
      <trkpt lat="46.4261" lon="-0.34754">
        <ele>74.6395264</ele>
        <time>2011-01-27T16:00:04Z</time>
      </trkpt>
      <trkpt lat="46.42612" lon="-0.34737">
        <ele>73.6782227</ele>
        <time>2011-01-27T16:00:15Z</time>
      </trkpt>
      <trkpt lat="46.42615" lon="-0.3473">
        <ele>73.6782227</ele>
        <time>2011-01-27T16:00:24Z</time>
      </trkpt>
      <trkpt lat="46.4262" lon="-0.34717">
        <ele>72.7169189</ele>
        <time>2011-01-27T16:00:35Z</time>
      </trkpt>
      <trkpt lat="46.42623" lon="-0.347">
        <ele>72.2362061</ele>
        <time>2011-01-27T16:00:47Z</time>
      </trkpt>
      <trkpt lat="46.42627" lon="-0.34683">
        <ele>68.3908691</ele>
        <time>2011-01-27T16:01:07Z</time>
      </trkpt>
      <trkpt lat="46.42627" lon="-0.34679">
        <ele>67.4296875</ele>
        <time>2011-01-27T16:01:09Z</time>
      </trkpt>
      <trkpt lat="46.42627" lon="-0.34664">
        <ele>65.5070801</ele>
        <time>2011-01-27T16:01:16Z</time>
      </trkpt>
      <trkpt lat="46.4263" lon="-0.34654">
        <ele>65.0263672</ele>
        <time>2011-01-27T16:01:21Z</time>
      </trkpt>
      <trkpt lat="46.42637" lon="-0.34639">
        <ele>64.0650635</ele>
        <time>2011-01-27T16:01:31Z</time>
      </trkpt>
      <trkpt lat="46.4265" lon="-0.34614">
        <ele>62.142334</ele>
        <time>2011-01-27T16:01:48Z</time>
      </trkpt>
      <trkpt lat="46.42654" lon="-0.34597">
        <ele>63.5843506</ele>
        <time>2011-01-27T16:01:59Z</time>
      </trkpt>
      <trkpt lat="46.42655" lon="-0.34596">
        <ele>64.0650635</ele>
        <time>2011-01-27T16:02:00Z</time>
      </trkpt>
      <trkpt lat="46.42649" lon="-0.34576">
        <ele>65.9876709</ele>
        <time>2011-01-27T16:02:13Z</time>
      </trkpt>
      <trkpt lat="46.42648" lon="-0.34573">
        <ele>65.9876709</ele>
        <time>2011-01-27T16:02:15Z</time>
      </trkpt>
      <trkpt lat="46.42648" lon="-0.3457">
        <ele>65.5070801</ele>
        <time>2011-01-27T16:02:17Z</time>
      </trkpt>
      <trkpt lat="46.42647" lon="-0.34558">
        <ele>63.1036377</ele>
        <time>2011-01-27T16:02:26Z</time>
      </trkpt>
      <trkpt lat="46.42645" lon="-0.3454">
        <ele>59.7391357</ele>
        <time>2011-01-27T16:02:38Z</time>
      </trkpt>
      <trkpt lat="46.42643" lon="-0.34535">
        <ele>56.8551025</ele>
        <time>2011-01-27T16:02:44Z</time>
      </trkpt>
      <trkpt lat="46.42638" lon="-0.34528">
        <ele>52.5291748</ele>
        <time>2011-01-27T16:02:51Z</time>
      </trkpt>
      <trkpt lat="46.42626" lon="-0.34515">
        <ele>53.0097656</ele>
        <time>2011-01-27T16:03:03Z</time>
      </trkpt>
      <trkpt lat="46.42605" lon="-0.34489">
        <ele>69.8328857</ele>
        <time>2011-01-27T16:03:17Z</time>
      </trkpt>
      <trkpt lat="46.42591" lon="-0.34471">
        <ele>78.9654541</ele>
        <time>2011-01-27T16:03:33Z</time>
      </trkpt>
      <trkpt lat="46.42576" lon="-0.34461">
        <ele>78.9654541</ele>
        <time>2011-01-27T16:03:47Z</time>
      </trkpt>
      <trkpt lat="46.42562" lon="-0.34448">
        <ele>79.4460449</ele>
        <time>2011-01-27T16:04:02Z</time>
      </trkpt>
      <trkpt lat="46.42555" lon="-0.34441">
        <ele>78.4847412</ele>
        <time>2011-01-27T16:04:09Z</time>
      </trkpt>
      <trkpt lat="46.42552" lon="-0.34438">
        <ele>77.5234375</ele>
        <time>2011-01-27T16:04:13Z</time>
      </trkpt>
      <trkpt lat="46.42544" lon="-0.34434">
        <ele>75.1202393</ele>
        <time>2011-01-27T16:04:20Z</time>
      </trkpt>
      <trkpt lat="46.4254" lon="-0.3443">
        <ele>73.1976318</ele>
        <time>2011-01-27T16:04:25Z</time>
      </trkpt>
      <trkpt lat="46.42529" lon="-0.34416">
        <ele>66.9489746</ele>
        <time>2011-01-27T16:04:39Z</time>
      </trkpt>
      <trkpt lat="46.42524" lon="-0.34412">
        <ele>64.0650635</ele>
        <time>2011-01-27T16:04:45Z</time>
      </trkpt>
      <trkpt lat="46.42512" lon="-0.34399">
        <ele>59.7391357</ele>
        <time>2011-01-27T16:04:59Z</time>
      </trkpt>
      <trkpt lat="46.42501" lon="-0.34386">
        <ele>58.77771</ele>
        <time>2011-01-27T16:05:09Z</time>
      </trkpt>
      <trkpt lat="46.42488" lon="-0.34372">
        <ele>59.7391357</ele>
        <time>2011-01-27T16:05:21Z</time>
      </trkpt>
      <trkpt lat="46.42484" lon="-0.34369">
        <ele>60.2197266</ele>
        <time>2011-01-27T16:05:25Z</time>
      </trkpt>
      <trkpt lat="46.42479" lon="-0.34359">
        <ele>62.6229248</ele>
        <time>2011-01-27T16:05:30Z</time>
      </trkpt>
      <trkpt lat="46.42475" lon="-0.34354">
        <ele>63.5843506</ele>
        <time>2011-01-27T16:05:34Z</time>
      </trkpt>
      <trkpt lat="46.42463" lon="-0.34332">
        <ele>66.9489746</ele>
        <time>2011-01-27T16:05:48Z</time>
      </trkpt>
      <trkpt lat="46.42457" lon="-0.3432">
        <ele>67.4296875</ele>
        <time>2011-01-27T16:05:57Z</time>
      </trkpt>
      <trkpt lat="46.42457" lon="-0.34307">
        <ele>71.2749023</ele>
        <time>2011-01-27T16:06:06Z</time>
      </trkpt>
      <trkpt lat="46.42457" lon="-0.34302">
        <ele>70.3134766</ele>
        <time>2011-01-27T16:06:09Z</time>
      </trkpt>
      <trkpt lat="46.42453" lon="-0.34288">
        <ele>67.4296875</ele>
        <time>2011-01-27T16:06:21Z</time>
      </trkpt>
      <trkpt lat="46.42451" lon="-0.34282">
        <ele>64.0650635</ele>
        <time>2011-01-27T16:06:35Z</time>
      </trkpt>
      <trkpt lat="46.42445" lon="-0.34262">
        <ele>56.3745117</ele>
        <time>2011-01-27T16:06:57Z</time>
      </trkpt>
      <trkpt lat="46.4244" lon="-0.3422">
        <ele>36.1867676</ele>
        <time>2011-01-27T16:07:39Z</time>
      </trkpt>
      <trkpt lat="46.42444" lon="-0.34204">
        <ele>31.380127</ele>
        <time>2011-01-27T16:07:50Z</time>
      </trkpt>
      <trkpt lat="46.42442" lon="-0.34193">
        <ele>27.0543213</ele>
        <time>2011-01-27T16:08:10Z</time>
      </trkpt>
      <trkpt lat="46.4244" lon="-0.34192">
        <ele>27.5349121</ele>
        <time>2011-01-27T16:08:14Z</time>
      </trkpt>
      <trkpt lat="46.42443" lon="-0.34185">
        <ele>28.4962158</ele>
        <time>2011-01-27T16:08:30Z</time>
      </trkpt>
      <trkpt lat="46.42444" lon="-0.34187">
        <ele>28.9769287</ele>
        <time>2011-01-27T16:08:42Z</time>
      </trkpt>
      <trkpt lat="46.42445" lon="-0.3419">
        <ele>28.9769287</ele>
        <time>2011-01-27T16:08:46Z</time>
      </trkpt>
      <trkpt lat="46.42451" lon="-0.34199">
        <ele>29.4575195</ele>
        <time>2011-01-27T16:08:57Z</time>
      </trkpt>
      <trkpt lat="46.42454" lon="-0.34193">
        <ele>28.4962158</ele>
        <time>2011-01-27T16:09:10Z</time>
      </trkpt>
      <trkpt lat="46.42468" lon="-0.34181">
        <ele>29.9381104</ele>
        <time>2011-01-27T16:09:24Z</time>
      </trkpt>
      <trkpt lat="46.42476" lon="-0.34169">
        <ele>35.2254639</ele>
        <time>2011-01-27T16:09:34Z</time>
      </trkpt>
      <trkpt lat="46.42483" lon="-0.3416">
        <ele>39.0706787</ele>
        <time>2011-01-27T16:09:43Z</time>
      </trkpt>
      <trkpt lat="46.42493" lon="-0.34145">
        <ele>43.8773193</ele>
        <time>2011-01-27T16:09:59Z</time>
      </trkpt>
      <trkpt lat="46.42503" lon="-0.34131">
        <ele>45.7999268</ele>
        <time>2011-01-27T16:10:11Z</time>
      </trkpt>
      <trkpt lat="46.42509" lon="-0.34124">
        <ele>45.3192139</ele>
        <time>2011-01-27T16:10:24Z</time>
      </trkpt>
      <trkpt lat="46.42512" lon="-0.34114">
        <ele>46.2806396</ele>
        <time>2011-01-27T16:10:45Z</time>
      </trkpt>
      <trkpt lat="46.42511" lon="-0.34103">
        <ele>48.2033691</ele>
        <time>2011-01-27T16:11:03Z</time>
      </trkpt>
      <trkpt lat="46.4251" lon="-0.34089">
        <ele>50.1259766</ele>
        <time>2011-01-27T16:11:25Z</time>
      </trkpt>
      <trkpt lat="46.42513" lon="-0.34073">
        <ele>49.1645508</ele>
        <time>2011-01-27T16:11:37Z</time>
      </trkpt>
      <trkpt lat="46.42511" lon="-0.34049">
        <ele>54.4517822</ele>
        <time>2011-01-27T16:11:49Z</time>
      </trkpt>
      <trkpt lat="46.42513" lon="-0.34028">
        <ele>56.8551025</ele>
        <time>2011-01-27T16:12:05Z</time>
      </trkpt>
      <trkpt lat="46.42515" lon="-0.34005">
        <ele>58.77771</ele>
        <time>2011-01-27T16:12:23Z</time>
      </trkpt>
      <trkpt lat="46.42522" lon="-0.33989">
        <ele>60.2197266</ele>
        <time>2011-01-27T16:12:35Z</time>
      </trkpt>
      <trkpt lat="46.42552" lon="-0.33944">
        <ele>64.5456543</ele>
        <time>2011-01-27T16:13:23Z</time>
      </trkpt>
      <trkpt lat="46.42558" lon="-0.33939">
        <ele>65.9876709</ele>
        <time>2011-01-27T16:13:32Z</time>
      </trkpt>
      <trkpt lat="46.42563" lon="-0.33934">
        <ele>67.4296875</ele>
        <time>2011-01-27T16:13:35Z</time>
      </trkpt>
      <trkpt lat="46.42576" lon="-0.33928">
        <ele>71.2749023</ele>
        <time>2011-01-27T16:13:43Z</time>
      </trkpt>
      <trkpt lat="46.42577" lon="-0.33916">
        <ele>71.2749023</ele>
        <time>2011-01-27T16:13:53Z</time>
      </trkpt>
      <trkpt lat="46.42573" lon="-0.33902">
        <ele>73.6782227</ele>
        <time>2011-01-27T16:14:04Z</time>
      </trkpt>
      <trkpt lat="46.42566" lon="-0.33881">
        <ele>74.1588135</ele>
        <time>2011-01-27T16:14:18Z</time>
      </trkpt>
      <trkpt lat="46.42563" lon="-0.33869">
        <ele>74.1588135</ele>
        <time>2011-01-27T16:14:26Z</time>
      </trkpt>
      <trkpt lat="46.42562" lon="-0.3384">
        <ele>73.1976318</ele>
        <time>2011-01-27T16:14:41Z</time>
      </trkpt>
      <trkpt lat="46.42561" lon="-0.33822">
        <ele>75.1202393</ele>
        <time>2011-01-27T16:14:51Z</time>
      </trkpt>
      <trkpt lat="46.42558" lon="-0.33802">
        <ele>75.1202393</ele>
        <time>2011-01-27T16:15:04Z</time>
      </trkpt>
      <trkpt lat="46.42553" lon="-0.33777">
        <ele>75.1202393</ele>
        <time>2011-01-27T16:15:19Z</time>
      </trkpt>
      <trkpt lat="46.4255" lon="-0.33763">
        <ele>75.6008301</ele>
        <time>2011-01-27T16:15:30Z</time>
      </trkpt>
      <trkpt lat="46.42542" lon="-0.33743">
        <ele>75.1202393</ele>
        <time>2011-01-27T16:15:42Z</time>
      </trkpt>
      <trkpt lat="46.42538" lon="-0.33728">
        <ele>74.6395264</ele>
        <time>2011-01-27T16:15:53Z</time>
      </trkpt>
      <trkpt lat="46.4253" lon="-0.33711">
        <ele>74.1588135</ele>
        <time>2011-01-27T16:16:05Z</time>
      </trkpt>
      <trkpt lat="46.4252" lon="-0.3369">
        <ele>73.6782227</ele>
        <time>2011-01-27T16:16:19Z</time>
      </trkpt>
      <trkpt lat="46.42519" lon="-0.33689">
        <ele>73.6782227</ele>
        <time>2011-01-27T16:16:20Z</time>
      </trkpt>
      <trkpt lat="46.42506" lon="-0.33672">
        <ele>74.1588135</ele>
        <time>2011-01-27T16:16:34Z</time>
      </trkpt>
      <trkpt lat="46.42494" lon="-0.33656">
        <ele>73.6782227</ele>
        <time>2011-01-27T16:16:48Z</time>
      </trkpt>
      <trkpt lat="46.42482" lon="-0.3364">
        <ele>74.1588135</ele>
        <time>2011-01-27T16:17:02Z</time>
      </trkpt>
      <trkpt lat="46.4247" lon="-0.33627">
        <ele>73.6782227</ele>
        <time>2011-01-27T16:17:16Z</time>
      </trkpt>
      <trkpt lat="46.42458" lon="-0.33615">
        <ele>74.1588135</ele>
        <time>2011-01-27T16:17:28Z</time>
      </trkpt>
      <trkpt lat="46.42445" lon="-0.33599">
        <ele>74.1588135</ele>
        <time>2011-01-27T16:17:42Z</time>
      </trkpt>
      <trkpt lat="46.42433" lon="-0.33584">
        <ele>72.7169189</ele>
        <time>2011-01-27T16:17:55Z</time>
      </trkpt>
      <trkpt lat="46.42424" lon="-0.33564">
        <ele>73.6782227</ele>
        <time>2011-01-27T16:18:09Z</time>
      </trkpt>
      <trkpt lat="46.42419" lon="-0.33546">
        <ele>72.2362061</ele>
        <time>2011-01-27T16:18:22Z</time>
      </trkpt>
      <trkpt lat="46.42418" lon="-0.33543">
        <ele>71.7554932</ele>
        <time>2011-01-27T16:18:24Z</time>
      </trkpt>
      <trkpt lat="46.42416" lon="-0.33533">
        <ele>71.2749023</ele>
        <time>2011-01-27T16:18:31Z</time>
      </trkpt>
      <trkpt lat="46.42412" lon="-0.33513">
        <ele>72.2362061</ele>
        <time>2011-01-27T16:18:47Z</time>
      </trkpt>
      <trkpt lat="46.42411" lon="-0.33499">
        <ele>71.7554932</ele>
        <time>2011-01-27T16:18:59Z</time>
      </trkpt>
      <trkpt lat="46.42409" lon="-0.33487">
        <ele>71.2749023</ele>
        <time>2011-01-27T16:19:10Z</time>
      </trkpt>
      <trkpt lat="46.42407" lon="-0.33466">
        <ele>67.9102783</ele>
        <time>2011-01-27T16:19:25Z</time>
      </trkpt>
      <trkpt lat="46.42405" lon="-0.33453">
        <ele>66.4682617</ele>
        <time>2011-01-27T16:19:33Z</time>
      </trkpt>
      <trkpt lat="46.42403" lon="-0.33442">
        <ele>65.9876709</ele>
        <time>2011-01-27T16:19:39Z</time>
      </trkpt>
      <trkpt lat="46.424" lon="-0.33426">
        <ele>61.6617432</ele>
        <time>2011-01-27T16:19:50Z</time>
      </trkpt>
      <trkpt lat="46.42394" lon="-0.33408">
        <ele>58.2971191</ele>
        <time>2011-01-27T16:20:04Z</time>
      </trkpt>
      <trkpt lat="46.4239" lon="-0.33401">
        <ele>57.3358154</ele>
        <time>2011-01-27T16:20:19Z</time>
      </trkpt>
      <trkpt lat="46.42386" lon="-0.33406">
        <ele>55.8937988</ele>
        <time>2011-01-27T16:20:25Z</time>
      </trkpt>
      <trkpt lat="46.42379" lon="-0.33418">
        <ele>50.6065674</ele>
        <time>2011-01-27T16:20:36Z</time>
      </trkpt>
      <trkpt lat="46.42378" lon="-0.33421">
        <ele>50.1259766</ele>
        <time>2011-01-27T16:20:38Z</time>
      </trkpt>
      <trkpt lat="46.42369" lon="-0.33433">
        <ele>44.3580322</ele>
        <time>2011-01-27T16:20:50Z</time>
      </trkpt>
      <trkpt lat="46.42362" lon="-0.33443">
        <ele>42.4354248</ele>
        <time>2011-01-27T16:20:58Z</time>
      </trkpt>
      <trkpt lat="46.42352" lon="-0.3346">
        <ele>39.5512695</ele>
        <time>2011-01-27T16:21:11Z</time>
      </trkpt>
      <trkpt lat="46.42345" lon="-0.33471">
        <ele>33.7834473</ele>
        <time>2011-01-27T16:21:21Z</time>
      </trkpt>
      <trkpt lat="46.42337" lon="-0.33486">
        <ele>27.5349121</ele>
        <time>2011-01-27T16:21:33Z</time>
      </trkpt>
      <trkpt lat="46.42334" lon="-0.33488">
        <ele>27.0543213</ele>
        <time>2011-01-27T16:21:35Z</time>
      </trkpt>
      <trkpt lat="46.42325" lon="-0.33501">
        <ele>27.0543213</ele>
        <time>2011-01-27T16:21:43Z</time>
      </trkpt>
      <trkpt lat="46.42321" lon="-0.33506">
        <ele>27.5349121</ele>
        <time>2011-01-27T16:21:48Z</time>
      </trkpt>
      <trkpt lat="46.42319" lon="-0.33527">
        <ele>27.0543213</ele>
        <time>2011-01-27T16:22:00Z</time>
      </trkpt>
      <trkpt lat="46.4232" lon="-0.33531">
        <ele>27.0543213</ele>
        <time>2011-01-27T16:22:03Z</time>
      </trkpt>
      <trkpt lat="46.42318" lon="-0.33539">
        <ele>26.5736084</ele>
        <time>2011-01-27T16:22:07Z</time>
      </trkpt>
      <trkpt lat="46.42317" lon="-0.33552">
        <ele>26.0928955</ele>
        <time>2011-01-27T16:22:16Z</time>
      </trkpt>
      <trkpt lat="46.42314" lon="-0.33579">
        <ele>26.0928955</ele>
        <time>2011-01-27T16:22:29Z</time>
      </trkpt>
      <trkpt lat="46.4231" lon="-0.33606">
        <ele>24.1702881</ele>
        <time>2011-01-27T16:22:43Z</time>
      </trkpt>
      <trkpt lat="46.42307" lon="-0.33619">
        <ele>19.3637695</ele>
        <time>2011-01-27T16:22:52Z</time>
      </trkpt>
      <trkpt lat="46.42299" lon="-0.33633">
        <ele>16.4797363</ele>
        <time>2011-01-27T16:23:02Z</time>
      </trkpt>
      <trkpt lat="46.42296" lon="-0.33635">
        <ele>17.9217529</ele>
        <time>2011-01-27T16:23:03Z</time>
      </trkpt>
      <trkpt lat="46.42295" lon="-0.33638">
        <ele>16.9604492</ele>
        <time>2011-01-27T16:23:05Z</time>
      </trkpt>
      <trkpt lat="46.42282" lon="-0.33656">
        <ele>13.5958252</ele>
        <time>2011-01-27T16:23:17Z</time>
      </trkpt>
      <trkpt lat="46.42275" lon="-0.33674">
        <ele>11.1925049</ele>
        <time>2011-01-27T16:23:28Z</time>
      </trkpt>
      <trkpt lat="46.42274" lon="-0.3368">
        <ele>10.711792</ele>
        <time>2011-01-27T16:23:31Z</time>
      </trkpt>
      <trkpt lat="46.42273" lon="-0.33698">
        <ele>10.2312012</ele>
        <time>2011-01-27T16:23:43Z</time>
      </trkpt>
      <trkpt lat="46.42271" lon="-0.33702">
        <ele>11.1925049</ele>
        <time>2011-01-27T16:23:59Z</time>
      </trkpt>
      <trkpt lat="46.42262" lon="-0.33714">
        <ele>11.1925049</ele>
        <time>2011-01-27T16:24:15Z</time>
      </trkpt>
      <trkpt lat="46.42248" lon="-0.33735">
        <ele>11.1925049</ele>
        <time>2011-01-27T16:24:36Z</time>
      </trkpt>
      <trkpt lat="46.4222" lon="-0.33754">
        <ele>18.8830566</ele>
        <time>2011-01-27T16:25:39Z</time>
      </trkpt>
      <trkpt lat="46.42213" lon="-0.33762">
        <ele>27.0543213</ele>
        <time>2011-01-27T16:25:57Z</time>
      </trkpt>
      <trkpt lat="46.42212" lon="-0.33762">
        <ele>28.9769287</ele>
        <time>2011-01-27T16:26:25Z</time>
      </trkpt>
      <trkpt lat="46.42216" lon="-0.33758">
        <ele>36.6674805</ele>
        <time>2011-01-27T16:26:37Z</time>
      </trkpt>
      <trkpt lat="46.42218" lon="-0.3376">
        <ele>40.0321045</ele>
        <time>2011-01-27T16:26:47Z</time>
      </trkpt>
      <trkpt lat="46.42214" lon="-0.33773">
        <ele>40.0321045</ele>
        <time>2011-01-27T16:27:01Z</time>
      </trkpt>
      <trkpt lat="46.42202" lon="-0.33794">
        <ele>43.3966064</ele>
        <time>2011-01-27T16:27:41Z</time>
      </trkpt>
      <trkpt lat="46.42196" lon="-0.33808">
        <ele>45.3192139</ele>
        <time>2011-01-27T16:27:52Z</time>
      </trkpt>
      <trkpt lat="46.42189" lon="-0.33825">
        <ele>45.7999268</ele>
        <time>2011-01-27T16:28:03Z</time>
      </trkpt>
      <trkpt lat="46.42181" lon="-0.33845">
        <ele>45.7999268</ele>
        <time>2011-01-27T16:28:15Z</time>
      </trkpt>
      <trkpt lat="46.42175" lon="-0.33859">
        <ele>45.7999268</ele>
        <time>2011-01-27T16:28:25Z</time>
      </trkpt>
      <trkpt lat="46.42172" lon="-0.33864">
        <ele>45.7999268</ele>
        <time>2011-01-27T16:28:29Z</time>
      </trkpt>
      <trkpt lat="46.42167" lon="-0.33871">
        <ele>44.838623</ele>
        <time>2011-01-27T16:28:35Z</time>
      </trkpt>
      <trkpt lat="46.42155" lon="-0.33884">
        <ele>42.9160156</ele>
        <time>2011-01-27T16:28:45Z</time>
      </trkpt>
      <trkpt lat="46.42135" lon="-0.33908">
        <ele>42.4354248</ele>
        <time>2011-01-27T16:29:06Z</time>
      </trkpt>
      <trkpt lat="46.42125" lon="-0.33934">
        <ele>40.5128174</ele>
        <time>2011-01-27T16:29:23Z</time>
      </trkpt>
      <trkpt lat="46.42117" lon="-0.33958">
        <ele>38.109375</ele>
        <time>2011-01-27T16:29:35Z</time>
      </trkpt>
      <trkpt lat="46.42111" lon="-0.33968">
        <ele>38.5900879</ele>
        <time>2011-01-27T16:29:42Z</time>
      </trkpt>
      <trkpt lat="46.42103" lon="-0.33969">
        <ele>40.5128174</ele>
        <time>2011-01-27T16:29:47Z</time>
      </trkpt>
      <trkpt lat="46.42089" lon="-0.3398">
        <ele>51.0871582</ele>
        <time>2011-01-27T16:30:00Z</time>
      </trkpt>
      <trkpt lat="46.42085" lon="-0.33997">
        <ele>56.8551025</ele>
        <time>2011-01-27T16:30:11Z</time>
      </trkpt>
      <trkpt lat="46.42078" lon="-0.34018">
        <ele>64.5456543</ele>
        <time>2011-01-27T16:30:26Z</time>
      </trkpt>
      <trkpt lat="46.4207" lon="-0.34035">
        <ele>69.8328857</ele>
        <time>2011-01-27T16:30:37Z</time>
      </trkpt>
      <trkpt lat="46.42055" lon="-0.34046">
        <ele>74.6395264</ele>
        <time>2011-01-27T16:30:49Z</time>
      </trkpt>
      <trkpt lat="46.4204" lon="-0.34064">
        <ele>76.5621338</ele>
        <time>2011-01-27T16:31:03Z</time>
      </trkpt>
      <trkpt lat="46.42039" lon="-0.34066">
        <ele>77.0428467</ele>
        <time>2011-01-27T16:31:05Z</time>
      </trkpt>
      <trkpt lat="46.42036" lon="-0.34071">
        <ele>78.9654541</ele>
        <time>2011-01-27T16:31:12Z</time>
      </trkpt>
      <trkpt lat="46.42035" lon="-0.34078">
        <ele>79.9266357</ele>
        <time>2011-01-27T16:31:17Z</time>
      </trkpt>
      <trkpt lat="46.42031" lon="-0.34085">
        <ele>81.3687744</ele>
        <time>2011-01-27T16:31:22Z</time>
      </trkpt>
      <trkpt lat="46.42021" lon="-0.34102">
        <ele>82.810791</ele>
        <time>2011-01-27T16:31:36Z</time>
      </trkpt>
      <trkpt lat="46.42019" lon="-0.34105">
        <ele>83.2913818</ele>
        <time>2011-01-27T16:31:39Z</time>
      </trkpt>
      <trkpt lat="46.42014" lon="-0.34118">
        <ele>82.3300781</ele>
        <time>2011-01-27T16:31:52Z</time>
      </trkpt>
      <trkpt lat="46.42013" lon="-0.3412">
        <ele>82.3300781</ele>
        <time>2011-01-27T16:32:07Z</time>
      </trkpt>
      <trkpt lat="46.42009" lon="-0.34128">
        <ele>82.3300781</ele>
        <time>2011-01-27T16:32:12Z</time>
      </trkpt>
      <trkpt lat="46.41995" lon="-0.34155">
        <ele>82.3300781</ele>
        <time>2011-01-27T16:32:30Z</time>
      </trkpt>
      <trkpt lat="46.41984" lon="-0.34173">
        <ele>80.4074707</ele>
        <time>2011-01-27T16:32:43Z</time>
      </trkpt>
      <trkpt lat="46.41973" lon="-0.34186">
        <ele>79.9266357</ele>
        <time>2011-01-27T16:32:55Z</time>
      </trkpt>
      <trkpt lat="46.41962" lon="-0.34199">
        <ele>79.4460449</ele>
        <time>2011-01-27T16:33:06Z</time>
      </trkpt>
      <trkpt lat="46.41958" lon="-0.34203">
        <ele>79.9266357</ele>
        <time>2011-01-27T16:33:09Z</time>
      </trkpt>
      <trkpt lat="46.41946" lon="-0.34215">
        <ele>82.810791</ele>
        <time>2011-01-27T16:33:23Z</time>
      </trkpt>
      <trkpt lat="46.41936" lon="-0.34225">
        <ele>85.2139893</ele>
        <time>2011-01-27T16:33:34Z</time>
      </trkpt>
      <trkpt lat="46.41928" lon="-0.34231">
        <ele>86.175293</ele>
        <time>2011-01-27T16:33:42Z</time>
      </trkpt>
      <trkpt lat="46.41915" lon="-0.34244">
        <ele>88.5787354</ele>
        <time>2011-01-27T16:33:56Z</time>
      </trkpt>
      <trkpt lat="46.41903" lon="-0.34256">
        <ele>92.4239502</ele>
        <time>2011-01-27T16:34:09Z</time>
      </trkpt>
      <trkpt lat="46.41886" lon="-0.34265">
        <ele>94.3465576</ele>
        <time>2011-01-27T16:34:24Z</time>
      </trkpt>
      <trkpt lat="46.41871" lon="-0.34274">
        <ele>95.3077393</ele>
        <time>2011-01-27T16:34:39Z</time>
      </trkpt>
      <trkpt lat="46.41862" lon="-0.34278">
        <ele>95.3077393</ele>
        <time>2011-01-27T16:34:48Z</time>
      </trkpt>
      <trkpt lat="46.41858" lon="-0.3428">
        <ele>95.3077393</ele>
        <time>2011-01-27T16:34:52Z</time>
      </trkpt>
      <trkpt lat="46.41851" lon="-0.34284">
        <ele>95.3077393</ele>
        <time>2011-01-27T16:34:58Z</time>
      </trkpt>
      <trkpt lat="46.41836" lon="-0.34292">
        <ele>97.2304688</ele>
        <time>2011-01-27T16:35:13Z</time>
      </trkpt>
      <trkpt lat="46.41827" lon="-0.34297">
        <ele>97.2304688</ele>
        <time>2011-01-27T16:35:22Z</time>
      </trkpt>
      <trkpt lat="46.41823" lon="-0.34298">
        <ele>97.2304688</ele>
        <time>2011-01-27T16:35:25Z</time>
      </trkpt>
      <trkpt lat="46.41812" lon="-0.34306">
        <ele>96.7498779</ele>
        <time>2011-01-27T16:35:36Z</time>
      </trkpt>
      <trkpt lat="46.41801" lon="-0.34316">
        <ele>98.6724854</ele>
        <time>2011-01-27T16:35:47Z</time>
      </trkpt>
      <trkpt lat="46.41797" lon="-0.34319">
        <ele>99.6337891</ele>
        <time>2011-01-27T16:35:51Z</time>
      </trkpt>
      <trkpt lat="46.41781" lon="-0.34331">
        <ele>102.5177002</ele>
        <time>2011-01-27T16:36:04Z</time>
      </trkpt>
      <trkpt lat="46.41766" lon="-0.34345">
        <ele>104.9210205</ele>
        <time>2011-01-27T16:36:19Z</time>
      </trkpt>
      <trkpt lat="46.41748" lon="-0.34359">
        <ele>106.8436279</ele>
        <time>2011-01-27T16:36:37Z</time>
      </trkpt>
      <trkpt lat="46.41739" lon="-0.34369">
        <ele>107.8050537</ele>
        <time>2011-01-27T16:36:48Z</time>
      </trkpt>
      <trkpt lat="46.41723" lon="-0.34385">
        <ele>108.2856445</ele>
        <time>2011-01-27T16:37:04Z</time>
      </trkpt>
      <trkpt lat="46.41709" lon="-0.34399">
        <ele>108.7662354</ele>
        <time>2011-01-27T16:37:18Z</time>
      </trkpt>
      <trkpt lat="46.41694" lon="-0.34414">
        <ele>109.2469482</ele>
        <time>2011-01-27T16:37:32Z</time>
      </trkpt>
      <trkpt lat="46.41679" lon="-0.34429">
        <ele>108.7662354</ele>
        <time>2011-01-27T16:37:48Z</time>
      </trkpt>
      <trkpt lat="46.41661" lon="-0.34448">
        <ele>108.2856445</ele>
        <time>2011-01-27T16:38:04Z</time>
      </trkpt>
      <trkpt lat="46.41643" lon="-0.34466">
        <ele>107.8050537</ele>
        <time>2011-01-27T16:38:20Z</time>
      </trkpt>
      <trkpt lat="46.41642" lon="-0.34467">
        <ele>107.3243408</ele>
        <time>2011-01-27T16:38:21Z</time>
      </trkpt>
      <trkpt lat="46.41626" lon="-0.34482">
        <ele>110.208252</ele>
        <time>2011-01-27T16:38:35Z</time>
      </trkpt>
      <trkpt lat="46.41616" lon="-0.34492">
        <ele>110.208252</ele>
        <time>2011-01-27T16:38:46Z</time>
      </trkpt>
      <trkpt lat="46.41601" lon="-0.34507">
        <ele>109.2469482</ele>
        <time>2011-01-27T16:39:02Z</time>
      </trkpt>
      <trkpt lat="46.41592" lon="-0.34518">
        <ele>108.7662354</ele>
        <time>2011-01-27T16:39:12Z</time>
      </trkpt>
      <trkpt lat="46.41578" lon="-0.34531">
        <ele>106.8436279</ele>
        <time>2011-01-27T16:39:26Z</time>
      </trkpt>
      <trkpt lat="46.41566" lon="-0.3454">
        <ele>106.3630371</ele>
        <time>2011-01-27T16:39:42Z</time>
      </trkpt>
      <trkpt lat="46.41547" lon="-0.34552">
        <ele>106.8436279</ele>
        <time>2011-01-27T16:40:01Z</time>
      </trkpt>
      <trkpt lat="46.41522" lon="-0.3456">
        <ele>106.8436279</ele>
        <time>2011-01-27T16:40:22Z</time>
      </trkpt>
      <trkpt lat="46.41507" lon="-0.34569">
        <ele>104.9210205</ele>
        <time>2011-01-27T16:40:35Z</time>
      </trkpt>
      <trkpt lat="46.41496" lon="-0.34581">
        <ele>103.4790039</ele>
        <time>2011-01-27T16:40:49Z</time>
      </trkpt>
      <trkpt lat="46.41489" lon="-0.34592">
        <ele>102.998291</ele>
        <time>2011-01-27T16:41:00Z</time>
      </trkpt>
      <trkpt lat="46.41481" lon="-0.346">
        <ele>102.5177002</ele>
        <time>2011-01-27T16:41:11Z</time>
      </trkpt>
      <trkpt lat="46.41468" lon="-0.3461">
        <ele>101.5563965</ele>
        <time>2011-01-27T16:41:24Z</time>
      </trkpt>
      <trkpt lat="46.41452" lon="-0.34626">
        <ele>101.5563965</ele>
        <time>2011-01-27T16:41:38Z</time>
      </trkpt>
      <trkpt lat="46.41439" lon="-0.34638">
        <ele>101.0756836</ele>
        <time>2011-01-27T16:41:50Z</time>
      </trkpt>
      <trkpt lat="46.41427" lon="-0.34654">
        <ele>101.0756836</ele>
        <time>2011-01-27T16:42:03Z</time>
      </trkpt>
      <trkpt lat="46.41421" lon="-0.3466">
        <ele>100.5950928</ele>
        <time>2011-01-27T16:42:10Z</time>
      </trkpt>
      <trkpt lat="46.4141" lon="-0.3468">
        <ele>99.6337891</ele>
        <time>2011-01-27T16:42:25Z</time>
      </trkpt>
      <trkpt lat="46.41402" lon="-0.34702">
        <ele>97.2304688</ele>
        <time>2011-01-27T16:42:37Z</time>
      </trkpt>
      <trkpt lat="46.41401" lon="-0.3471">
        <ele>96.7498779</ele>
        <time>2011-01-27T16:42:42Z</time>
      </trkpt>
      <trkpt lat="46.41406" lon="-0.34725">
        <ele>95.7884521</ele>
        <time>2011-01-27T16:42:53Z</time>
      </trkpt>
      <trkpt lat="46.41407" lon="-0.34728">
        <ele>95.3077393</ele>
        <time>2011-01-27T16:42:55Z</time>
      </trkpt>
      <trkpt lat="46.4142" lon="-0.34741">
        <ele>94.3465576</ele>
        <time>2011-01-27T16:43:09Z</time>
      </trkpt>
      <trkpt lat="46.41431" lon="-0.34751">
        <ele>94.8271484</ele>
        <time>2011-01-27T16:43:22Z</time>
      </trkpt>
      <trkpt lat="46.41435" lon="-0.34754">
        <ele>94.8271484</ele>
        <time>2011-01-27T16:43:26Z</time>
      </trkpt>
      <trkpt lat="46.41459" lon="-0.34767">
        <ele>93.3851318</ele>
        <time>2011-01-27T16:43:44Z</time>
      </trkpt>
      <trkpt lat="46.41469" lon="-0.3478">
        <ele>91.4625244</ele>
        <time>2011-01-27T16:43:58Z</time>
      </trkpt>
      <trkpt lat="46.41483" lon="-0.34792">
        <ele>86.6560059</ele>
        <time>2011-01-27T16:44:13Z</time>
      </trkpt>
      <trkpt lat="46.41491" lon="-0.34802">
        <ele>83.7719727</ele>
        <time>2011-01-27T16:44:22Z</time>
      </trkpt>
      <trkpt lat="46.41502" lon="-0.34816">
        <ele>80.8881836</ele>
        <time>2011-01-27T16:44:33Z</time>
      </trkpt>
      <trkpt lat="46.41515" lon="-0.34829">
        <ele>75.1202393</ele>
        <time>2011-01-27T16:44:48Z</time>
      </trkpt>
      <trkpt lat="46.41517" lon="-0.34835">
        <ele>73.1976318</ele>
        <time>2011-01-27T16:44:52Z</time>
      </trkpt>
      <trkpt lat="46.41525" lon="-0.34855">
        <ele>74.6395264</ele>
        <time>2011-01-27T16:45:04Z</time>
      </trkpt>
      <trkpt lat="46.41535" lon="-0.34886">
        <ele>74.1588135</ele>
        <time>2011-01-27T16:45:19Z</time>
      </trkpt>
      <trkpt lat="46.41538" lon="-0.34909">
        <ele>73.6782227</ele>
        <time>2011-01-27T16:45:32Z</time>
      </trkpt>
      <trkpt lat="46.41545" lon="-0.34946">
        <ele>73.1976318</ele>
        <time>2011-01-27T16:45:52Z</time>
      </trkpt>
      <trkpt lat="46.41547" lon="-0.34963">
        <ele>73.1976318</ele>
        <time>2011-01-27T16:46:04Z</time>
      </trkpt>
      <trkpt lat="46.41547" lon="-0.34965">
        <ele>73.1976318</ele>
        <time>2011-01-27T16:46:05Z</time>
      </trkpt>
      <trkpt lat="46.41548" lon="-0.34975">
        <ele>73.1976318</ele>
        <time>2011-01-27T16:46:11Z</time>
      </trkpt>
      <trkpt lat="46.41554" lon="-0.35005">
        <ele>74.1588135</ele>
        <time>2011-01-27T16:46:29Z</time>
      </trkpt>
      <trkpt lat="46.41557" lon="-0.35019">
        <ele>74.1588135</ele>
        <time>2011-01-27T16:46:39Z</time>
      </trkpt>
      <trkpt lat="46.4156" lon="-0.35044">
        <ele>74.1588135</ele>
        <time>2011-01-27T16:46:55Z</time>
      </trkpt>
      <trkpt lat="46.41567" lon="-0.3507">
        <ele>74.1588135</ele>
        <time>2011-01-27T16:47:10Z</time>
      </trkpt>
      <trkpt lat="46.41575" lon="-0.35107">
        <ele>73.6782227</ele>
        <time>2011-01-27T16:47:30Z</time>
      </trkpt>
      <trkpt lat="46.41581" lon="-0.35135">
        <ele>73.1976318</ele>
        <time>2011-01-27T16:47:49Z</time>
      </trkpt>
      <trkpt lat="46.41606" lon="-0.3515">
        <ele>70.7941895</ele>
        <time>2011-01-27T16:48:18Z</time>
      </trkpt>
      <trkpt lat="46.41612" lon="-0.35154">
        <ele>69.8328857</ele>
        <time>2011-01-27T16:48:23Z</time>
      </trkpt>
      <trkpt lat="46.41624" lon="-0.35182">
        <ele>70.3134766</ele>
        <time>2011-01-27T16:48:41Z</time>
      </trkpt>
      <trkpt lat="46.4163" lon="-0.35199">
        <ele>69.3522949</ele>
        <time>2011-01-27T16:48:53Z</time>
      </trkpt>
      <trkpt lat="46.41638" lon="-0.35215">
        <ele>68.3908691</ele>
        <time>2011-01-27T16:49:06Z</time>
      </trkpt>
      <trkpt lat="46.41648" lon="-0.35224">
        <ele>68.3908691</ele>
        <time>2011-01-27T16:49:17Z</time>
      </trkpt>
      <trkpt lat="46.41657" lon="-0.35227">
        <ele>68.3908691</ele>
        <time>2011-01-27T16:49:24Z</time>
      </trkpt>
      <trkpt lat="46.41666" lon="-0.3523">
        <ele>68.3908691</ele>
        <time>2011-01-27T16:49:30Z</time>
      </trkpt>
      <trkpt lat="46.41672" lon="-0.35234">
        <ele>68.871582</ele>
        <time>2011-01-27T16:49:35Z</time>
      </trkpt>
      <trkpt lat="46.41688" lon="-0.35249">
        <ele>73.1976318</ele>
        <time>2011-01-27T16:49:48Z</time>
      </trkpt>
      <trkpt lat="46.41693" lon="-0.35258">
        <ele>71.7554932</ele>
        <time>2011-01-27T16:49:58Z</time>
      </trkpt>
      <trkpt lat="46.41702" lon="-0.3527">
        <ele>76.0814209</ele>
        <time>2011-01-27T16:50:09Z</time>
      </trkpt>
      <trkpt lat="46.4171" lon="-0.35283">
        <ele>79.9266357</ele>
        <time>2011-01-27T16:50:21Z</time>
      </trkpt>
      <trkpt lat="46.41721" lon="-0.35303">
        <ele>83.7719727</ele>
        <time>2011-01-27T16:50:36Z</time>
      </trkpt>
      <trkpt lat="46.41724" lon="-0.35306">
        <ele>84.2526855</ele>
        <time>2011-01-27T16:50:39Z</time>
      </trkpt>
      <trkpt lat="46.41735" lon="-0.35326">
        <ele>85.6945801</ele>
        <time>2011-01-27T16:50:54Z</time>
      </trkpt>
      <trkpt lat="46.41747" lon="-0.35345">
        <ele>88.5787354</ele>
        <time>2011-01-27T16:51:08Z</time>
      </trkpt>
      <trkpt lat="46.41749" lon="-0.3535">
        <ele>89.0593262</ele>
        <time>2011-01-27T16:51:19Z</time>
      </trkpt>
      <trkpt lat="46.4175" lon="-0.35351">
        <ele>89.0593262</ele>
        <time>2011-01-27T16:51:20Z</time>
      </trkpt>
      <trkpt lat="46.41759" lon="-0.3537">
        <ele>90.0206299</ele>
        <time>2011-01-27T16:51:35Z</time>
      </trkpt>
      <trkpt lat="46.4177" lon="-0.35391">
        <ele>92.4239502</ele>
        <time>2011-01-27T16:51:50Z</time>
      </trkpt>
      <trkpt lat="46.4178" lon="-0.35411">
        <ele>92.4239502</ele>
        <time>2011-01-27T16:52:04Z</time>
      </trkpt>
      <trkpt lat="46.41791" lon="-0.35432">
        <ele>91.9432373</ele>
        <time>2011-01-27T16:52:19Z</time>
      </trkpt>
      <trkpt lat="46.41801" lon="-0.35449">
        <ele>90.5013428</ele>
        <time>2011-01-27T16:52:32Z</time>
      </trkpt>
      <trkpt lat="46.41813" lon="-0.3547">
        <ele>90.9819336</ele>
        <time>2011-01-27T16:52:47Z</time>
      </trkpt>
      <trkpt lat="46.41826" lon="-0.35494">
        <ele>90.9819336</ele>
        <time>2011-01-27T16:53:03Z</time>
      </trkpt>
      <trkpt lat="46.41828" lon="-0.35498">
        <ele>90.9819336</ele>
        <time>2011-01-27T16:53:06Z</time>
      </trkpt>
      <trkpt lat="46.41828" lon="-0.35503">
        <ele>91.4625244</ele>
        <time>2011-01-27T16:53:10Z</time>
      </trkpt>
      <trkpt lat="46.41819" lon="-0.35523">
        <ele>92.904541</ele>
        <time>2011-01-27T16:53:25Z</time>
      </trkpt>
      <trkpt lat="46.41808" lon="-0.35542">
        <ele>92.904541</ele>
        <time>2011-01-27T16:53:39Z</time>
      </trkpt>
      <trkpt lat="46.41799" lon="-0.35559">
        <ele>92.904541</ele>
        <time>2011-01-27T16:53:51Z</time>
      </trkpt>
      <trkpt lat="46.41786" lon="-0.3558">
        <ele>92.904541</ele>
        <time>2011-01-27T16:54:06Z</time>
      </trkpt>
      <trkpt lat="46.41778" lon="-0.35599">
        <ele>91.4625244</ele>
        <time>2011-01-27T16:54:21Z</time>
      </trkpt>
      <trkpt lat="46.41769" lon="-0.35614">
        <ele>90.0206299</ele>
        <time>2011-01-27T16:54:33Z</time>
      </trkpt>
      <trkpt lat="46.4176" lon="-0.35626">
        <ele>89.0593262</ele>
        <time>2011-01-27T16:54:42Z</time>
      </trkpt>
      <trkpt lat="46.4175" lon="-0.35637">
        <ele>87.1365967</ele>
        <time>2011-01-27T16:54:53Z</time>
      </trkpt>
      <trkpt lat="46.4174" lon="-0.35647">
        <ele>84.7333984</ele>
        <time>2011-01-27T16:55:03Z</time>
      </trkpt>
      <trkpt lat="46.4172" lon="-0.35664">
        <ele>81.8493652</ele>
        <time>2011-01-27T16:55:18Z</time>
      </trkpt>
      <trkpt lat="46.41717" lon="-0.35665">
        <ele>80.4074707</ele>
        <time>2011-01-27T16:55:21Z</time>
      </trkpt>
      <trkpt lat="46.41703" lon="-0.35675">
        <ele>77.0428467</ele>
        <time>2011-01-27T16:55:32Z</time>
      </trkpt>
      <trkpt lat="46.41686" lon="-0.35677">
        <ele>72.2362061</ele>
        <time>2011-01-27T16:55:46Z</time>
      </trkpt>
      <trkpt lat="46.41675" lon="-0.35679">
        <ele>70.7941895</ele>
        <time>2011-01-27T16:55:56Z</time>
      </trkpt>
      <trkpt lat="46.41666" lon="-0.35683">
        <ele>68.3908691</ele>
        <time>2011-01-27T16:56:08Z</time>
      </trkpt>
      <trkpt lat="46.41648" lon="-0.35689">
        <ele>65.5070801</ele>
        <time>2011-01-27T16:56:23Z</time>
      </trkpt>
      <trkpt lat="46.41636" lon="-0.35693">
        <ele>64.0650635</ele>
        <time>2011-01-27T16:56:33Z</time>
      </trkpt>
      <trkpt lat="46.41615" lon="-0.35705">
        <ele>63.5843506</ele>
        <time>2011-01-27T16:56:50Z</time>
      </trkpt>
      <trkpt lat="46.416" lon="-0.35713">
        <ele>63.5843506</ele>
        <time>2011-01-27T16:57:04Z</time>
      </trkpt>
      <trkpt lat="46.41593" lon="-0.35723">
        <ele>62.6229248</ele>
        <time>2011-01-27T16:57:12Z</time>
      </trkpt>
      <trkpt lat="46.41595" lon="-0.35743">
        <ele>60.2197266</ele>
        <time>2011-01-27T16:57:23Z</time>
      </trkpt>
      <trkpt lat="46.41599" lon="-0.35761">
        <ele>55.8937988</ele>
        <time>2011-01-27T16:57:36Z</time>
      </trkpt>
      <trkpt lat="46.41606" lon="-0.35776">
        <ele>54.932373</ele>
        <time>2011-01-27T16:57:45Z</time>
      </trkpt>
      <trkpt lat="46.41613" lon="-0.35791">
        <ele>55.4130859</ele>
        <time>2011-01-27T16:57:53Z</time>
      </trkpt>
      <trkpt lat="46.41616" lon="-0.35797">
        <ele>54.4517822</ele>
        <time>2011-01-27T16:57:57Z</time>
      </trkpt>
      <trkpt lat="46.41625" lon="-0.35823">
        <ele>51.5678711</ele>
        <time>2011-01-27T16:58:14Z</time>
      </trkpt>
      <trkpt lat="46.41637" lon="-0.35848">
        <ele>50.1259766</ele>
        <time>2011-01-27T16:58:30Z</time>
      </trkpt>
      <trkpt lat="46.41637" lon="-0.35855">
        <ele>49.6452637</ele>
        <time>2011-01-27T16:58:34Z</time>
      </trkpt>
      <trkpt lat="46.41618" lon="-0.35879">
        <ele>51.0871582</ele>
        <time>2011-01-27T16:58:51Z</time>
      </trkpt>
      <trkpt lat="46.41603" lon="-0.35897">
        <ele>52.5291748</ele>
        <time>2011-01-27T16:59:06Z</time>
      </trkpt>
      <trkpt lat="46.41585" lon="-0.35915">
        <ele>55.4130859</ele>
        <time>2011-01-27T16:59:23Z</time>
      </trkpt>
      <trkpt lat="46.41567" lon="-0.35931">
        <ele>55.4130859</ele>
        <time>2011-01-27T16:59:39Z</time>
      </trkpt>
      <trkpt lat="46.4155" lon="-0.35949">
        <ele>58.2971191</ele>
        <time>2011-01-27T16:59:56Z</time>
      </trkpt>
      <trkpt lat="46.4155" lon="-0.35954">
        <ele>59.2584229</ele>
        <time>2011-01-27T17:00:01Z</time>
      </trkpt>
      <trkpt lat="46.41557" lon="-0.3597">
        <ele>60.2197266</ele>
        <time>2011-01-27T17:00:12Z</time>
      </trkpt>
      <trkpt lat="46.41558" lon="-0.3598">
        <ele>61.6617432</ele>
        <time>2011-01-27T17:00:17Z</time>
      </trkpt>
      <trkpt lat="46.41561" lon="-0.35991">
        <ele>62.6229248</ele>
        <time>2011-01-27T17:00:22Z</time>
      </trkpt>
      <trkpt lat="46.4157" lon="-0.36005">
        <ele>61.1810303</ele>
        <time>2011-01-27T17:00:34Z</time>
      </trkpt>
      <trkpt lat="46.41581" lon="-0.36027">
        <ele>60.7003174</ele>
        <time>2011-01-27T17:00:49Z</time>
      </trkpt>
      <trkpt lat="46.41594" lon="-0.36045">
        <ele>58.77771</ele>
        <time>2011-01-27T17:01:05Z</time>
      </trkpt>
      <trkpt lat="46.4161" lon="-0.36063">
        <ele>60.2197266</ele>
        <time>2011-01-27T17:01:20Z</time>
      </trkpt>
      <trkpt lat="46.41611" lon="-0.36064">
        <ele>61.1810303</ele>
        <time>2011-01-27T17:01:21Z</time>
      </trkpt>
      <trkpt lat="46.41624" lon="-0.36088">
        <ele>62.6229248</ele>
        <time>2011-01-27T17:01:38Z</time>
      </trkpt>
      <trkpt lat="46.41638" lon="-0.3611">
        <ele>63.5843506</ele>
        <time>2011-01-27T17:01:54Z</time>
      </trkpt>
      <trkpt lat="46.41649" lon="-0.36124">
        <ele>64.0650635</ele>
        <time>2011-01-27T17:02:05Z</time>
      </trkpt>
      <trkpt lat="46.41652" lon="-0.36127">
        <ele>66.4682617</ele>
        <time>2011-01-27T17:02:19Z</time>
      </trkpt>
      <trkpt lat="46.41653" lon="-0.36128">
        <ele>71.2749023</ele>
        <time>2011-01-27T17:02:50Z</time>
      </trkpt>
      <trkpt lat="46.41655" lon="-0.36128">
        <ele>72.7169189</ele>
        <time>2011-01-27T17:03:12Z</time>
      </trkpt>
      <trkpt lat="46.41653" lon="-0.3613">
        <ele>73.6782227</ele>
        <time>2011-01-27T17:03:24Z</time>
      </trkpt>
      <trkpt lat="46.41654" lon="-0.36129">
        <ele>76.5621338</ele>
        <time>2011-01-27T17:04:10Z</time>
      </trkpt>
      <trkpt lat="46.41659" lon="-0.36119">
        <ele>78.9654541</ele>
        <time>2011-01-27T17:04:18Z</time>
      </trkpt>
    </trkseg>
  </trk>
</gpx>